
Distance (Route):
Temperature : 0°C
Humidity : 0%
Pressure : 0hPa| Receiver | Frames | First received | Last received |
|---|---|---|---|
| 9A1FER-10 | 246 | 2026-09-02 23:58:10 | 2026-09-03 01:23:45 |
| 9A1FER-3 | 212 | 2026-09-02 23:58:02 | 2026-09-03 01:17:56 |
| PETON7-10 | 90 | 2026-09-03 00:29:39 | 2026-09-03 00:55:54 |
| OE3JTB-15 | 4 | 2026-09-02 23:59:53 | 2026-09-03 00:08:21 |
| IV3AMH | 1 | 2026-09-03 00:32:53 | 2026-09-03 00:32:53 |
| Receiver | Date | Latitude | Longitude | Direction | Speed | Altitude | Climb | Temperature | Humidity | Pressure | Voltage | Killtimer | Uptime | BKT | XDATA |
|---|---|---|---|---|---|---|---|---|---|---|---|---|---|---|---|
| 9A1FER-10 | 2026-09-03 01:23:45 | 45.49715 | 15.26484 | 218° | 16km/h | 1882m | -10.9m/s | 0°C | 0% | 0hPa | 0V | 00:00:00 | 00:00:00 | 00:00:00 | |
| 9A1FER-10 | 2026-09-03 01:23:12 | 45.49810 | 15.26583 | 232° | 16km/h | 2227m | -8.7m/s | 0°C | 0% | 0hPa | 0V | 00:00:00 | 00:00:00 | 00:00:00 | |
| 9A1FER-10 | 2026-09-03 01:22:58 | 45.49841 | 15.26651 | 242° | 22km/h | 2368m | -10.3m/s | 0°C | 0% | 0hPa | 0V | 00:00:00 | 00:00:00 | 00:00:00 | |
| 9A1FER-10 | 2026-09-03 01:22:14 | 45.49958 | 15.26944 | 243° | 22km/h | 2830m | -9.7m/s | 0°C | 0% | 0hPa | 0V | 00:00:00 | 00:00:00 | 00:00:00 | |
| 9A1FER-10 | 2026-09-03 01:22:04 | 45.49982 | 15.27012 | 246° | 24km/h | 2929m | -9.3m/s | 0°C | 0% | 0hPa | 0V | 00:00:00 | 00:00:00 | 00:00:00 | |
| 9A1FER-10 | 2026-09-03 01:21:53 | 45.50009 | 15.27090 | 241° | 24km/h | 3039m | -11.1m/s | 0°C | 0% | 0hPa | 0V | 00:00:00 | 00:00:00 | 00:00:00 | |
| 9A1FER-10 | 2026-09-03 01:21:38 | 45.50051 | 15.27217 | 235° | 24km/h | 3201m | -8.8m/s | 0°C | 0% | 0hPa | 0V | 00:00:00 | 00:00:00 | 00:00:00 | |
| 9A1FER-10 | 2026-09-03 01:21:23 | 45.50095 | 15.27308 | 247° | 20km/h | 3349m | -8.5m/s | 0°C | 0% | 0hPa | 0V | 00:00:00 | 00:00:00 | 00:00:00 | |
| 9A1FER-10 | 2026-09-03 01:21:08 | 45.50123 | 15.27410 | 254° | 15km/h | 3503m | -10.4m/s | 0°C | 0% | 0hPa | 0V | 00:00:00 | 00:00:00 | 00:00:00 | |
| 9A1FER-10 | 2026-09-03 01:20:53 | 45.50147 | 15.27475 | 223° | 31km/h | 3665m | -9.4m/s | 0°C | 0% | 0hPa | 0V | 00:00:00 | 00:00:00 | 00:00:00 | |
| 9A1FER-3 | 2026-09-03 01:17:56 | 45.50566 | 15.26396 | 111° | 35km/h | 5456m | -10.8m/s | 0°C | 0% | 0hPa | 0V | 00:00:00 | 00:00:00 | 00:00:00 | |
| 9A1FER-3 | 2026-09-03 01:17:20 | 45.50661 | 15.25946 | 111° | 35km/h | 5825m | -8.6m/s | 0°C | 0% | 0hPa | 0V | 00:00:00 | 00:00:00 | 00:00:00 | |
| 9A1FER-3 | 2026-09-03 01:17:05 | 45.50718 | 15.25779 | 122° | 29km/h | 5991m | -8.6m/s | 0°C | 0% | 0hPa | 0V | 00:00:00 | 00:00:00 | 00:00:00 | |
| 9A1FER-3 | 2026-09-03 01:16:50 | 45.50772 | 15.25637 | 119° | 27km/h | 6145m | -10.2m/s | 0°C | 0% | 0hPa | 0V | 00:00:00 | 00:00:00 | 00:00:00 | |
| 9A1FER-3 | 2026-09-03 01:16:33 | 45.50834 | 15.25486 | 127° | 31km/h | 6331m | -10.0m/s | 0°C | 0% | 0hPa | 0V | 00:00:00 | 00:00:00 | 00:00:00 | |
| 9A1FER-3 | 2026-09-03 01:16:17 | 45.50898 | 15.25329 | 118° | 57km/h | 6523m | -12.4m/s | 0°C | 0% | 0hPa | 0V | 00:00:00 | 00:00:00 | 00:00:00 | |
| 9A1FER-10 | 2026-09-03 01:14:40 | 45.51628 | 15.24083 | 135° | 66km/h | 7572m | -9.0m/s | 0°C | 0% | 0hPa | 0V | 00:00:00 | 00:00:00 | 00:00:00 | |
| 9A1FER-10 | 2026-09-03 01:14:16 | 45.51927 | 15.23723 | 148° | 73km/h | 7811m | -9.6m/s | 0°C | 0% | 0hPa | 0V | 00:00:00 | 00:00:00 | 00:00:00 | |
| 9A1FER-10 | 2026-09-03 01:14:01 | 45.52166 | 15.23514 | 151° | 82km/h | 7961m | -9.4m/s | 0°C | 0% | 0hPa | 0V | 00:00:00 | 00:00:00 | 00:00:00 | |
| 9A1FER-3 | 2026-09-03 01:13:48 | 45.52398 | 15.23320 | 153° | 91km/h | 8083m | -10.8m/s | 0°C | 0% | 0hPa | 0V | 00:00:00 | 00:00:00 | 00:00:00 | |
| 9A1FER-10 | 2026-09-03 01:13:46 | 45.52436 | 15.23289 | 150° | 91km/h | 8102m | -6.1m/s | 0°C | 0% | 0hPa | 0V | 00:00:00 | 00:00:00 | 00:00:00 | |
| 9A1FER-10 | 2026-09-03 01:13:31 | 45.52741 | 15.23044 | 150° | 95km/h | 8235m | -7.5m/s | 0°C | 0% | 0hPa | 0V | 00:00:00 | 00:00:00 | 00:00:00 | |
| 9A1FER-3 | 2026-09-03 01:13:28 | 45.52805 | 15.22990 | 150° | 95km/h | 8260m | -9.0m/s | 0°C | 0% | 0hPa | 0V | 00:00:00 | 00:00:00 | 00:00:00 | |
| 9A1FER-10 | 2026-09-03 01:13:16 | 45.53052 | 15.22770 | 149° | 93km/h | 8372m | -8.6m/s | 0°C | 0% | 0hPa | 0V | 00:00:00 | 00:00:00 | 00:00:00 | |
| 9A1FER-3 | 2026-09-03 01:13:12 | 45.53132 | 15.22696 | 149° | 91km/h | 8406m | -7.4m/s | 0°C | 0% | 0hPa | 0V | 00:00:00 | 00:00:00 | 00:00:00 | |
| 9A1FER-10 | 2026-09-03 01:13:01 | 45.53347 | 15.22495 | 148° | 89km/h | 8500m | -7.8m/s | 0°C | 0% | 0hPa | 0V | 00:00:00 | 00:00:00 | 00:00:00 | |
| 9A1FER-10 | 2026-09-03 01:12:46 | 45.53625 | 15.22223 | 146° | 86km/h | 8632m | -7.8m/s | 0°C | 0% | 0hPa | 0V | 00:00:00 | 00:00:00 | 00:00:00 | |
| 9A1FER-3 | 2026-09-03 01:12:34 | 45.53841 | 15.22004 | 146° | 89km/h | 8734m | -8.9m/s | 0°C | 0% | 0hPa | 0V | 00:00:00 | 00:00:00 | 00:00:00 | |
| 9A1FER-10 | 2026-09-03 01:12:30 | 45.53912 | 15.21932 | 144° | 88km/h | 8770m | -9.7m/s | 0°C | 0% | 0hPa | 0V | 00:00:00 | 00:00:00 | 00:00:00 | |
| 9A1FER-3 | 2026-09-03 01:12:18 | 45.54135 | 15.21725 | 149° | 91km/h | 8883m | -9.9m/s | 0°C | 0% | 0hPa | 0V | 00:00:00 | 00:00:00 | 00:00:00 | |
| 9A1FER-10 | 2026-09-03 01:12:15 | 45.54192 | 15.21672 | 149° | 93km/h | 8914m | -10.6m/s | 0°C | 0% | 0hPa | 0V | 00:00:00 | 00:00:00 | 00:00:00 | |
| 9A1FER-3 | 2026-09-03 01:12:01 | 45.54469 | 15.21425 | 146° | 97km/h | 9049m | -7.7m/s | 0°C | 0% | 0hPa | 0V | 00:00:00 | 00:00:00 | 00:00:00 | |
| 9A1FER-10 | 2026-09-03 01:11:59 | 45.54509 | 15.21386 | 147° | 97km/h | 9067m | -10.2m/s | 0°C | 0% | 0hPa | 0V | 00:00:00 | 00:00:00 | 00:00:00 | |
| 9A1FER-10 | 2026-09-03 01:11:44 | 45.54817 | 15.21099 | 146° | 106km/h | 9211m | -9.1m/s | 0°C | 0% | 0hPa | 0V | 00:00:00 | 00:00:00 | 00:00:00 | |
| 9A1FER-3 | 2026-09-03 01:11:40 | 45.54903 | 15.21017 | 147° | 110km/h | 9250m | -10.2m/s | 0°C | 0% | 0hPa | 0V | 00:00:00 | 00:00:00 | 00:00:00 | |
| 9A1FER-10 | 2026-09-03 01:11:29 | 45.55150 | 15.20778 | 147° | 111km/h | 9356m | -8.2m/s | 0°C | 0% | 0hPa | 0V | 00:00:00 | 00:00:00 | 00:00:00 | |
| 9A1FER-3 | 2026-09-03 01:11:25 | 45.55246 | 15.20689 | 148° | 122km/h | 9386m | -6.6m/s | 0°C | 0% | 0hPa | 0V | 00:00:00 | 00:00:00 | 00:00:00 | |
| 9A1FER-10 | 2026-09-03 01:11:14 | 45.55513 | 15.20454 | 149° | 119km/h | 9501m | -10.7m/s | 0°C | 0% | 0hPa | 0V | 00:00:00 | 00:00:00 | 00:00:00 | |
| 9A1FER-10 | 2026-09-03 01:10:59 | 45.55901 | 15.20127 | 149° | 128km/h | 9665m | -10.5m/s | 0°C | 0% | 0hPa | 0V | 00:00:00 | 00:00:00 | 00:00:00 | |
| 9A1FER-10 | 2026-09-03 01:10:43 | 45.56342 | 15.19727 | 148° | 130km/h | 9845m | -10.7m/s | 0°C | 0% | 0hPa | 0V | 00:00:00 | 00:00:00 | 00:00:00 | |
| 9A1FER-10 | 2026-09-03 01:10:28 | 45.56756 | 15.19340 | 147° | 128km/h | 10024m | -13.3m/s | 0°C | 0% | 0hPa | 0V | 00:00:00 | 00:00:00 | 00:00:00 | |
| 9A1FER-10 | 2026-09-03 01:10:13 | 45.57148 | 15.18938 | 145° | 122km/h | 10204m | -11.2m/s | 0°C | 0% | 0hPa | 0V | 00:00:00 | 00:00:00 | 00:00:00 | |
| 9A1FER-3 | 2026-09-03 01:10:12 | 45.57173 | 15.18912 | 145° | 122km/h | 10216m | -9.9m/s | 0°C | 0% | 0hPa | 0V | 00:00:00 | 00:00:00 | 00:00:00 | |
| 9A1FER-10 | 2026-09-03 01:09:58 | 45.57534 | 15.18550 | 145° | 126km/h | 10371m | -9.9m/s | 0°C | 0% | 0hPa | 0V | 00:00:00 | 00:00:00 | 00:00:00 | |
| 9A1FER-10 | 2026-09-03 01:09:43 | 45.57936 | 15.18175 | 148° | 124km/h | 10539m | -10.5m/s | 0°C | 0% | 0hPa | 0V | 00:00:00 | 00:00:00 | 00:00:00 | |
| 9A1FER-10 | 2026-09-03 01:09:28 | 45.58341 | 15.17820 | 151° | 124km/h | 10709m | -11.0m/s | 0°C | 0% | 0hPa | 0V | 00:00:00 | 00:00:00 | 00:00:00 | |
| 9A1FER-3 | 2026-09-03 01:09:15 | 45.58702 | 15.17524 | 151° | 130km/h | 10848m | -10.3m/s | 0°C | 0% | 0hPa | 0V | 00:00:00 | 00:00:00 | 00:00:00 | |
| 9A1FER-10 | 2026-09-03 01:09:13 | 45.58756 | 15.17481 | 151° | 130km/h | 10870m | -11.1m/s | 0°C | 0% | 0hPa | 0V | 00:00:00 | 00:00:00 | 00:00:00 | |
| 9A1FER-10 | 2026-09-03 01:08:58 | 45.59189 | 15.17133 | 153° | 131km/h | 11026m | -8.7m/s | 0°C | 0% | 0hPa | 0V | 00:00:00 | 00:00:00 | 00:00:00 | |
| 9A1FER-3 | 2026-09-03 01:08:54 | 45.59305 | 15.17048 | 154° | 131km/h | 11064m | -10.7m/s | 0°C | 0% | 0hPa | 0V | 00:00:00 | 00:00:00 | 00:00:00 | |
| 9A1FER-10 | 2026-09-03 01:08:43 | 45.59634 | 15.16802 | 151° | 131km/h | 11169m | -9.0m/s | 0°C | 0% | 0hPa | 0V | 00:00:00 | 00:00:00 | 00:00:00 | |
| 9A1FER-3 | 2026-09-03 01:08:39 | 45.59749 | 15.16709 | 152° | 124km/h | 11211m | -8.9m/s | 0°C | 0% | 0hPa | 0V | 00:00:00 | 00:00:00 | 00:00:00 | |
| 9A1FER-10 | 2026-09-03 01:08:28 | 45.60073 | 15.16454 | 148° | 130km/h | 11327m | -9.5m/s | 0°C | 0% | 0hPa | 0V | 00:00:00 | 00:00:00 | 00:00:00 | |
| 9A1FER-10 | 2026-09-03 01:08:13 | 45.60497 | 15.16098 | 151° | 122km/h | 11494m | -10.3m/s | 0°C | 0% | 0hPa | 0V | 00:00:00 | 00:00:00 | 00:00:00 | |
| 9A1FER-10 | 2026-09-03 01:07:58 | 45.60896 | 15.15766 | 149° | 110km/h | 11660m | -10.5m/s | 0°C | 0% | 0hPa | 0V | 00:00:00 | 00:00:00 | 00:00:00 | |
| 9A1FER-10 | 2026-09-03 01:07:43 | 45.61248 | 15.15448 | 147° | 117km/h | 11822m | -10.0m/s | 0°C | 0% | 0hPa | 0V | 00:00:00 | 00:00:00 | 00:00:00 | |
| 9A1FER-10 | 2026-09-03 01:07:28 | 45.61596 | 15.15066 | 140° | 115km/h | 11998m | -11.7m/s | 0°C | 0% | 0hPa | 0V | 00:00:00 | 00:00:00 | 00:00:00 | |
| 9A1FER-3 | 2026-09-03 01:07:19 | 45.61797 | 15.14826 | 141° | 120km/h | 12102m | -8.8m/s | 0°C | 0% | 0hPa | 0V | 00:00:00 | 00:00:00 | 00:00:00 | |
| 9A1FER-3 | 2026-09-03 01:07:03 | 45.62195 | 15.14415 | 147° | 106km/h | 12290m | -12.0m/s | 0°C | 0% | 0hPa | 0V | 00:00:00 | 00:00:00 | 00:00:00 | |
| 9A1FER-10 | 2026-09-03 01:06:58 | 45.62321 | 15.14293 | 146° | 110km/h | 12352m | -10.8m/s | 0°C | 0% | 0hPa | 0V | 00:00:00 | 00:00:00 | 00:00:00 | |
| 9A1FER-10 | 2026-09-03 01:06:28 | 45.62950 | 15.13562 | 135° | 104km/h | 12707m | -11.8m/s | 0°C | 0% | 0hPa | 0V | 00:00:00 | 00:00:00 | 00:00:00 | |
| 9A1FER-10 | 2026-09-03 01:06:13 | 45.63228 | 15.13170 | 138° | 100km/h | 12892m | -11.1m/s | 0°C | 0% | 0hPa | 0V | 00:00:00 | 00:00:00 | 00:00:00 | |
| 9A1FER-10 | 2026-09-03 01:05:58 | 45.63503 | 15.12795 | 137° | 91km/h | 13084m | -12.0m/s | 0°C | 0% | 0hPa | 0V | 00:00:00 | 00:00:00 | 00:00:00 | |
| 9A1FER-10 | 2026-09-03 01:05:43 | 45.63764 | 15.12489 | 144° | 77km/h | 13269m | -12.9m/s | 0°C | 0% | 0hPa | 0V | 00:00:00 | 00:00:00 | 00:00:00 | |
| 9A1FER-10 | 2026-09-03 01:05:28 | 45.63977 | 15.12212 | 134° | 80km/h | 13461m | -12.7m/s | 0°C | 0% | 0hPa | 0V | 00:00:00 | 00:00:00 | 00:00:00 | |
| 9A1FER-10 | 2026-09-03 01:05:13 | 45.64195 | 15.11923 | 139° | 68km/h | 13661m | -13.2m/s | 0°C | 0% | 0hPa | 0V | 00:00:00 | 00:00:00 | 00:00:00 | |
| 9A1FER-10 | 2026-09-03 01:04:57 | 45.64418 | 15.11681 | 136° | 58km/h | 13881m | -13.5m/s | 0°C | 0% | 0hPa | 0V | 00:00:00 | 00:00:00 | 00:00:00 | |
| 9A1FER-10 | 2026-09-03 01:04:42 | 45.64568 | 15.11452 | 123° | 64km/h | 14088m | -13.2m/s | 0°C | 0% | 0hPa | 0V | 00:00:00 | 00:00:00 | 00:00:00 | |
| 9A1FER-10 | 2026-09-03 01:04:26 | 45.64711 | 15.11137 | 130° | 69km/h | 14320m | -12.9m/s | 0°C | 0% | 0hPa | 0V | 00:00:00 | 00:00:00 | 00:00:00 | |
| 9A1FER-10 | 2026-09-03 01:04:10 | 45.64884 | 15.10819 | 130° | 69km/h | 14554m | -13.2m/s | 0°C | 0% | 0hPa | 0V | 00:00:00 | 00:00:00 | 00:00:00 | |
| 9A1FER-3 | 2026-09-03 01:03:51 | 45.65086 | 15.10434 | 121° | 57km/h | 14833m | -15.0m/s | 0°C | 0% | 0hPa | 0V | 00:00:00 | 00:00:00 | 00:00:00 | |
| 9A1FER-10 | 2026-09-03 01:03:40 | 45.65186 | 15.10205 | 125° | 58km/h | 14997m | -13.9m/s | 0°C | 0% | 0hPa | 0V | 00:00:00 | 00:00:00 | 00:00:00 | |
| 9A1FER-10 | 2026-09-03 01:03:25 | 45.65299 | 15.09905 | 118° | 60km/h | 15232m | -14.0m/s | 0°C | 0% | 0hPa | 0V | 00:00:00 | 00:00:00 | 00:00:00 | |
| 9A1FER-10 | 2026-09-03 01:03:09 | 45.65430 | 15.09649 | 128° | 53km/h | 15437m | -12.9m/s | 0°C | 0% | 0hPa | 0V | 00:00:00 | 00:00:00 | 00:00:00 | |
| 9A1FER-10 | 2026-09-03 01:02:54 | 45.65529 | 15.09393 | 114° | 64km/h | 15672m | -12.6m/s | 0°C | 0% | 0hPa | 0V | 00:00:00 | 00:00:00 | 00:00:00 | |
| 9A1FER-10 | 2026-09-03 01:02:39 | 45.65660 | 15.09104 | 127° | 49km/h | 15917m | -15.5m/s | 0°C | 0% | 0hPa | 0V | 00:00:00 | 00:00:00 | 00:00:00 | |
| 9A1FER-10 | 2026-09-03 01:02:24 | 45.65734 | 15.08861 | 107° | 62km/h | 16166m | -13.8m/s | 0°C | 0% | 0hPa | 0V | 00:00:00 | 00:00:00 | 00:00:00 | |
| 9A1FER-10 | 2026-09-03 01:02:09 | 45.65793 | 15.08532 | 104° | 66km/h | 16408m | -16.0m/s | 0°C | 0% | 0hPa | 0V | 00:00:00 | 00:00:00 | 00:00:00 | |
| 9A1FER-10 | 2026-09-03 01:01:54 | 45.65887 | 15.08213 | 116° | 62km/h | 16644m | -15.5m/s | 0°C | 0% | 0hPa | 0V | 00:00:00 | 00:00:00 | 00:00:00 | |
| 9A1FER-10 | 2026-09-03 01:01:39 | 45.66002 | 15.07917 | 125° | 38km/h | 16867m | -13.0m/s | 0°C | 0% | 0hPa | 0V | 00:00:00 | 00:00:00 | 00:00:00 | |
| 9A1FER-10 | 2026-09-03 01:01:24 | 45.66070 | 15.07747 | 106° | 42km/h | 17102m | -15.2m/s | 0°C | 0% | 0hPa | 0V | 00:00:00 | 00:00:00 | 00:00:00 | |
| 9A1FER-10 | 2026-09-03 01:01:04 | 45.66106 | 15.07460 | 93° | 55km/h | 17398m | -14.1m/s | 0°C | 0% | 0hPa | 0V | 00:00:00 | 00:00:00 | 00:00:00 | |
| 9A1FER-10 | 2026-09-03 01:00:46 | 45.66117 | 15.07109 | 103° | 51km/h | 17661m | -13.8m/s | 0°C | 0% | 0hPa | 0V | 00:00:00 | 00:00:00 | 00:00:00 | |
| 9A1FER-10 | 2026-09-03 01:00:31 | 45.66188 | 15.06860 | 116° | 31km/h | 17887m | -14.6m/s | 0°C | 0% | 0hPa | 0V | 00:00:00 | 00:00:00 | 00:00:00 | |
| 9A1FER-10 | 2026-09-03 01:00:17 | 45.66233 | 15.06713 | 113° | 35km/h | 18112m | -14.1m/s | 0°C | 0% | 0hPa | 0V | 00:00:00 | 00:00:00 | 00:00:00 | |
| 9A1FER-3 | 2026-09-03 01:00:12 | 45.66247 | 15.06663 | 115° | 35km/h | 18171m | -13.3m/s | 0°C | 0% | 0hPa | 0V | 00:00:00 | 00:00:00 | 00:00:00 | |
| 9A1FER-10 | 2026-09-03 01:00:01 | 45.66282 | 15.06551 | 99° | 26km/h | 18322m | -12.8m/s | 0°C | 0% | 0hPa | 0V | 00:00:00 | 00:00:00 | 00:00:00 | |
| 9A1FER-10 | 2026-09-03 00:59:45 | 45.66254 | 15.06404 | 81° | 38km/h | 18558m | -11.4m/s | 0°C | 0% | 0hPa | 0V | 00:00:00 | 00:00:00 | 00:00:00 | |
| 9A1FER-10 | 2026-09-03 00:59:30 | 45.66245 | 15.06200 | 90° | 42km/h | 18777m | -14.7m/s | 0°C | 0% | 0hPa | 0V | 00:00:00 | 00:00:00 | 00:00:00 | |
| 9A1FER-10 | 2026-09-03 00:59:14 | 45.66277 | 15.05970 | 124° | 35km/h | 18999m | -11.2m/s | 0°C | 0% | 0hPa | 0V | 00:00:00 | 00:00:00 | 00:00:00 | |
| 9A1FER-3 | 2026-09-03 00:59:06 | 45.66313 | 15.05877 | 113° | 31km/h | 19097m | -12.8m/s | 0°C | 0% | 0hPa | 0V | 00:00:00 | 00:00:00 | 00:00:00 | |
| 9A1FER-10 | 2026-09-03 00:58:59 | 45.66336 | 15.05801 | 118° | 26km/h | 19186m | -11.4m/s | 0°C | 0% | 0hPa | 0V | 00:00:00 | 00:00:00 | 00:00:00 | |
| 9A1FER-3 | 2026-09-03 00:58:51 | 45.66365 | 15.05729 | 123° | 18km/h | 19271m | -11.1m/s | 0°C | 0% | 0hPa | 0V | 00:00:00 | 00:00:00 | 00:00:00 | |
| 9A1FER-10 | 2026-09-03 00:58:44 | 45.66392 | 15.05695 | 139° | 15km/h | 19332m | -7.1m/s | 0°C | 0% | 0hPa | 0V | 00:00:00 | 00:00:00 | 00:00:00 | |
| 9A1FER-3 | 2026-09-03 00:58:36 | 45.66409 | 15.05663 | 155° | 16km/h | 19394m | -6.8m/s | 0°C | 0% | 0hPa | 0V | 00:00:00 | 00:00:00 | 00:00:00 | |
| 9A1FER-10 | 2026-09-03 00:58:29 | 45.66432 | 15.05644 | 143° | 16km/h | 19450m | -5.6m/s | 0°C | 0% | 0hPa | 0V | 00:00:00 | 00:00:00 | 00:00:00 | |
| 9A1FER-3 | 2026-09-03 00:58:20 | 45.66470 | 15.05625 | 171° | 16km/h | 19518m | -6.1m/s | 0°C | 0% | 0hPa | 0V | 00:00:00 | 00:00:00 | 00:00:00 | |
| 9A1FER-10 | 2026-09-03 00:58:14 | 45.66493 | 15.05627 | 195° | 15km/h | 19565m | -6.1m/s | 0°C | 0% | 0hPa | 0V | 00:00:00 | 00:00:00 | 00:00:00 | |
| 9A1FER-3 | 2026-09-03 00:58:04 | 45.66524 | 15.05639 | 204° | 15km/h | 19643m | -7.7m/s | 0°C | 0% | 0hPa | 0V | 00:00:00 | 00:00:00 | 00:00:00 | |
| 9A1FER-10 | 2026-09-03 00:57:58 | 45.66547 | 15.05652 | 188° | 11km/h | 19690m | -6.7m/s | 0°C | 0% | 0hPa | 0V | 00:00:00 | 00:00:00 | 00:00:00 | |
| 9A1FER-3 | 2026-09-03 00:57:49 | 45.66574 | 15.05654 | 196° | 11km/h | 19759m | -7.3m/s | 0°C | 0% | 0hPa | 0V | 00:00:00 | 00:00:00 | 00:00:00 | |
| 9A1FER-10 | 2026-09-03 00:57:43 | 45.66588 | 15.05650 | 132° | 15km/h | 19807m | -7.4m/s | 0°C | 0% | 0hPa | 0V | 00:00:00 | 00:00:00 | 00:00:00 | |
| 9A1FER-3 | 2026-09-03 00:57:34 | 45.66609 | 15.05616 | 124° | 20km/h | 19877m | -8.6m/s | 0°C | 0% | 0hPa | 0V | 00:00:00 | 00:00:00 | 00:00:00 | |
| 9A1FER-10 | 2026-09-03 00:57:28 | 45.66620 | 15.05582 | 116° | 24km/h | 19924m | -7.3m/s | 0°C | 0% | 0hPa | 0V | 00:00:00 | 00:00:00 | 00:00:00 | |
| 9A1FER-3 | 2026-09-03 00:57:19 | 45.66635 | 15.05510 | 109° | 26km/h | 19994m | -7.6m/s | 0°C | 0% | 0hPa | 0V | 00:00:00 | 00:00:00 | 00:00:00 | |
| 9A1FER-10 | 2026-09-03 00:57:13 | 45.66649 | 15.05461 | 116° | 27km/h | 20044m | -8.1m/s | 0°C | 0% | 0hPa | 0V | 00:00:00 | 00:00:00 | 00:00:00 | |
| 9A1FER-3 | 2026-09-03 00:57:02 | 45.66684 | 15.05374 | 128° | 33km/h | 20127m | -7.1m/s | 0°C | 0% | 0hPa | 0V | 00:00:00 | 00:00:00 | 00:00:00 | |
| 9A1FER-3 | 2026-09-03 00:56:44 | 45.66773 | 15.05208 | 122° | 27km/h | 20262m | -7.9m/s | 0°C | 0% | 0hPa | 0V | 00:00:00 | 00:00:00 | 00:00:00 | |
| 9A1FER-10 | 2026-09-03 00:56:43 | 45.66776 | 15.05217 | 120° | 27km/h | 20271m | -8.6m/s | 0°C | 0% | 0hPa | 0V | 00:00:00 | 00:00:00 | 00:00:00 | |
| 9A1FER-10 | 2026-09-03 00:56:28 | 45.66838 | 15.05083 | 139° | 26km/h | 20387m | -7.5m/s | 0°C | 0% | 0hPa | 0V | 00:00:00 | 00:00:00 | 00:00:00 | |
| 9A1FER-10 | 2026-09-03 00:56:13 | 45.66920 | 15.05005 | 149° | 20km/h | 20505m | -6.9m/s | 0°C | 0% | 0hPa | 0V | 00:00:00 | 00:00:00 | 00:00:00 | |
| 9A1FER-3 | 2026-09-03 00:55:58 | 45.66992 | 15.04973 | 174° | 15km/h | 20622m | -7.1m/s | 0°C | 0% | 0hPa | 0V | 00:00:00 | 00:00:00 | 00:00:00 | |
| PETON7-10 | 2026-09-03 00:55:54 | 45.67008 | 15.04970 | 174° | 16km/h | 20654m | -7.0m/s | 0°C | 0% | 0hPa | 0V | 00:00:00 | 00:00:00 | 00:00:00 | |
| 9A1FER-10 | 2026-09-03 00:55:43 | 45.67049 | 15.04964 | 163° | 15km/h | 20743m | -7.0m/s | 0°C | 0% | 0hPa | 0V | 00:00:00 | 00:00:00 | 00:00:00 | |
| PETON7-10 | 2026-09-03 00:55:38 | 45.67064 | 15.04955 | 139° | 16km/h | 20780m | -6.8m/s | 0°C | 0% | 0hPa | 0V | 00:00:00 | 00:00:00 | 00:00:00 | |
| 9A1FER-10 | 2026-09-03 00:55:28 | 45.67095 | 15.04918 | 132° | 18km/h | 20863m | -8.4m/s | 0°C | 0% | 0hPa | 0V | 00:00:00 | 00:00:00 | 00:00:00 | |
| PETON7-10 | 2026-09-03 00:55:23 | 45.67104 | 15.04887 | 113° | 20km/h | 20901m | -7.0m/s | 0°C | 0% | 0hPa | 0V | 00:00:00 | 00:00:00 | 00:00:00 | |
| 9A1FER-10 | 2026-09-03 00:55:13 | 45.67116 | 15.04826 | 92° | 22km/h | 20978m | -6.6m/s | 0°C | 0% | 0hPa | 0V | 00:00:00 | 00:00:00 | 00:00:00 | |
| PETON7-10 | 2026-09-03 00:55:04 | 45.67121 | 15.04758 | 107° | 24km/h | 21050m | -7.5m/s | 0°C | 0% | 0hPa | 0V | 00:00:00 | 00:00:00 | 00:00:00 | |
| 9A1FER-10 | 2026-09-03 00:54:58 | 45.67131 | 15.04706 | 107° | 24km/h | 21099m | -7.9m/s | 0°C | 0% | 0hPa | 0V | 00:00:00 | 00:00:00 | 00:00:00 | |
| PETON7-10 | 2026-09-03 00:54:47 | 45.67141 | 15.04617 | 110° | 26km/h | 21188m | -8.5m/s | 0°C | 0% | 0hPa | 0V | 00:00:00 | 00:00:00 | 00:00:00 | |
| 9A1FER-10 | 2026-09-03 00:54:43 | 45.67150 | 15.04586 | 118° | 26km/h | 21222m | -6.9m/s | 0°C | 0% | 0hPa | 0V | 00:00:00 | 00:00:00 | 00:00:00 | |
| PETON7-10 | 2026-09-03 00:54:32 | 45.67193 | 15.04512 | 138° | 29km/h | 21313m | -8.3m/s | 0°C | 0% | 0hPa | 0V | 00:00:00 | 00:00:00 | 00:00:00 | |
| 9A1FER-10 | 2026-09-03 00:54:28 | 45.67215 | 15.04486 | 143° | 29km/h | 21348m | -8.1m/s | 0°C | 0% | 0hPa | 0V | 00:00:00 | 00:00:00 | 00:00:00 | |
| PETON7-10 | 2026-09-03 00:54:17 | 45.67287 | 15.04429 | 160° | 29km/h | 21439m | -8.3m/s | 0°C | 0% | 0hPa | 0V | 00:00:00 | 00:00:00 | 00:00:00 | |
| 9A1FER-10 | 2026-09-03 00:54:13 | 45.67314 | 15.04411 | 157° | 26km/h | 21473m | -8.3m/s | 0°C | 0% | 0hPa | 0V | 00:00:00 | 00:00:00 | 00:00:00 | |
| 9A1FER-3 | 2026-09-03 00:54:11 | 45.67329 | 15.04404 | 166° | 27km/h | 21491m | -8.8m/s | 0°C | 0% | 0hPa | 0V | 00:00:00 | 00:00:00 | 00:00:00 | |
| PETON7-10 | 2026-09-03 00:54:00 | 45.67398 | 15.04399 | 181° | 22km/h | 21586m | -8.8m/s | 0°C | 0% | 0hPa | 0V | 00:00:00 | 00:00:00 | 00:00:00 | |
| 9A1FER-10 | 2026-09-03 00:53:57 | 45.67417 | 15.04407 | 203° | 18km/h | 21612m | -6.6m/s | 0°C | 0% | 0hPa | 0V | 00:00:00 | 00:00:00 | 00:00:00 | |
| 9A1FER-3 | 2026-09-03 00:53:56 | 45.67423 | 15.04411 | 217° | 16km/h | 21620m | -8.2m/s | 0°C | 0% | 0hPa | 0V | 00:00:00 | 00:00:00 | 00:00:00 | |
| PETON7-10 | 2026-09-03 00:53:45 | 45.67464 | 15.04454 | 213° | 11km/h | 21717m | -7.9m/s | 0°C | 0% | 0hPa | 0V | 00:00:00 | 00:00:00 | 00:00:00 | |
| 9A1FER-10 | 2026-09-03 00:53:42 | 45.67470 | 15.04463 | 235° | 11km/h | 21742m | -7.6m/s | 0°C | 0% | 0hPa | 0V | 00:00:00 | 00:00:00 | 00:00:00 | |
| 9A1FER-3 | 2026-09-03 00:53:40 | 45.67472 | 15.04470 | 229° | 11km/h | 21759m | -7.5m/s | 0°C | 0% | 0hPa | 0V | 00:00:00 | 00:00:00 | 00:00:00 | |
| 9A1FER-10 | 2026-09-03 00:53:27 | 45.67475 | 15.04515 | 288° | 13km/h | 21871m | -8.9m/s | 0°C | 0% | 0hPa | 0V | 00:00:00 | 00:00:00 | 00:00:00 | |
| 9A1FER-3 | 2026-09-03 00:53:25 | 45.67473 | 15.04523 | 285° | 15km/h | 21890m | -9.6m/s | 0°C | 0% | 0hPa | 0V | 00:00:00 | 00:00:00 | 00:00:00 | |
| 9A1FER-10 | 2026-09-03 00:53:11 | 45.67485 | 15.04582 | 231° | 15km/h | 22016m | -8.0m/s | 0°C | 0% | 0hPa | 0V | 00:00:00 | 00:00:00 | 00:00:00 | |
| PETON7-10 | 2026-09-03 00:53:10 | 45.67487 | 15.04587 | 230° | 15km/h | 22025m | -8.6m/s | 0°C | 0% | 0hPa | 0V | 00:00:00 | 00:00:00 | 00:00:00 | |
| 9A1FER-3 | 2026-09-03 00:52:55 | 45.67495 | 15.04656 | 292° | 13km/h | 22157m | -6.8m/s | 0°C | 0% | 0hPa | 0V | 00:00:00 | 00:00:00 | 00:00:00 | |
| 9A1FER-10 | 2026-09-03 00:52:53 | 45.67490 | 15.04664 | 325° | 13km/h | 22174m | -7.4m/s | 0°C | 0% | 0hPa | 0V | 00:00:00 | 00:00:00 | 00:00:00 | |
| PETON7-10 | 2026-09-03 00:52:41 | 45.67464 | 15.04706 | 281° | 9km/h | 22289m | -9.6m/s | 0°C | 0% | 0hPa | 0V | 00:00:00 | 00:00:00 | 00:00:00 | |
| PETON7-10 | 2026-09-03 00:52:25 | 45.67469 | 15.04760 | 268° | 15km/h | 22424m | -8.2m/s | 0°C | 0% | 0hPa | 0V | 00:00:00 | 00:00:00 | 00:00:00 | |
| PETON7-10 | 2026-09-03 00:52:09 | 45.67487 | 15.04833 | 247° | 15km/h | 22571m | -7.7m/s | 0°C | 0% | 0hPa | 0V | 00:00:00 | 00:00:00 | 00:00:00 | |
| 9A1FER-3 | 2026-09-03 00:51:53 | 45.67510 | 15.04907 | 285° | 9km/h | 22719m | -9.6m/s | 0°C | 0% | 0hPa | 0V | 00:00:00 | 00:00:00 | 00:00:00 | |
| PETON7-10 | 2026-09-03 00:51:52 | 45.67510 | 15.04909 | 234° | 11km/h | 22728m | -8.7m/s | 0°C | 0% | 0hPa | 0V | 00:00:00 | 00:00:00 | 00:00:00 | |
| 9A1FER-3 | 2026-09-03 00:51:38 | 45.67487 | 15.04931 | 344° | 16km/h | 22861m | -9.6m/s | 0°C | 0% | 0hPa | 0V | 00:00:00 | 00:00:00 | 00:00:00 | |
| PETON7-10 | 2026-09-03 00:51:33 | 45.67470 | 15.04934 | 10° | 18km/h | 22910m | -9.2m/s | 0°C | 0% | 0hPa | 0V | 00:00:00 | 00:00:00 | 00:00:00 | |
| 9A1FER-3 | 2026-09-03 00:51:23 | 45.67430 | 15.04916 | 20° | 20km/h | 23005m | -9.4m/s | 0°C | 0% | 0hPa | 0V | 00:00:00 | 00:00:00 | 00:00:00 | |
| PETON7-10 | 2026-09-03 00:51:17 | 45.67404 | 15.04891 | 47° | 16km/h | 23062m | -7.8m/s | 0°C | 0% | 0hPa | 0V | 00:00:00 | 00:00:00 | 00:00:00 | |
| 9A1FER-3 | 2026-09-03 00:51:08 | 45.67373 | 15.04841 | 49° | 9km/h | 23150m | -9.2m/s | 0°C | 0% | 0hPa | 0V | 00:00:00 | 00:00:00 | 00:00:00 | |
| PETON7-10 | 2026-09-03 00:51:02 | 45.67365 | 15.04821 | 67° | 11km/h | 23208m | -9.2m/s | 0°C | 0% | 0hPa | 0V | 00:00:00 | 00:00:00 | 00:00:00 | |
| 9A1FER-3 | 2026-09-03 00:50:53 | 45.67366 | 15.04806 | 248° | 9km/h | 23298m | -9.9m/s | 0°C | 0% | 0hPa | 0V | 00:00:00 | 00:00:00 | 00:00:00 | |
| 9A1FER-3 | 2026-09-03 00:50:37 | 45.67377 | 15.04850 | 249° | 16km/h | 23457m | -9.4m/s | 0°C | 0% | 0hPa | 0V | 00:00:00 | 00:00:00 | 00:00:00 | |
| PETON7-10 | 2026-09-03 00:50:35 | 45.67380 | 15.04862 | 257° | 16km/h | 23477m | -10.0m/s | 0°C | 0% | 0hPa | 0V | 00:00:00 | 00:00:00 | 00:00:00 | |
| 9A1FER-3 | 2026-09-03 00:50:22 | 45.67382 | 15.04937 | 289° | 11km/h | 23609m | -8.3m/s | 0°C | 0% | 0hPa | 0V | 00:00:00 | 00:00:00 | 00:00:00 | |
| PETON7-10 | 2026-09-03 00:50:20 | 45.67379 | 15.04946 | 301° | 9km/h | 23627m | -10.0m/s | 0°C | 0% | 0hPa | 0V | 00:00:00 | 00:00:00 | 00:00:00 | |
| 9A1FER-3 | 2026-09-03 00:50:07 | 45.67364 | 15.04971 | 67° | 13km/h | 23759m | -9.4m/s | 0°C | 0% | 0hPa | 0V | 00:00:00 | 00:00:00 | 00:00:00 | |
| PETON7-10 | 2026-09-03 00:50:04 | 45.67363 | 15.04964 | 55° | 9km/h | 23790m | -10.4m/s | 0°C | 0% | 0hPa | 0V | 00:00:00 | 00:00:00 | 00:00:00 | |
| 9A1FER-3 | 2026-09-03 00:49:52 | 45.67366 | 15.04907 | 84° | 7km/h | 23912m | -8.9m/s | 0°C | 0% | 0hPa | 0V | 00:00:00 | 00:00:00 | 00:00:00 | |
| PETON7-10 | 2026-09-03 00:49:48 | 45.67366 | 15.04899 | 107° | 7km/h | 23956m | -10.4m/s | 0°C | 0% | 0hPa | 0V | 00:00:00 | 00:00:00 | 00:00:00 | |
| 9A1FER-3 | 2026-09-03 00:49:36 | 45.67384 | 15.04892 | 120° | 4km/h | 24081m | -10.1m/s | 0°C | 0% | 0hPa | 0V | 00:00:00 | 00:00:00 | 00:00:00 | |
| PETON7-10 | 2026-09-03 00:49:33 | 45.67384 | 15.04891 | 84° | 9km/h | 24114m | -9.9m/s | 0°C | 0% | 0hPa | 0V | 00:00:00 | 00:00:00 | 00:00:00 | |
| 9A1FER-3 | 2026-09-03 00:49:21 | 45.67392 | 15.04890 | 107° | 11km/h | 24271m | -15.9m/s | 0°C | 0% | 0hPa | 0V | 00:00:00 | 00:00:00 | 00:00:00 | |
| PETON7-10 | 2026-09-03 00:49:13 | 45.67409 | 15.04889 | 242° | 11km/h | 24391m | -14.7m/s | 0°C | 0% | 0hPa | 0V | 00:00:00 | 00:00:00 | 00:00:00 | |
| 9A1FER-3 | 2026-09-03 00:49:05 | 45.67396 | 15.04884 | 195° | 11km/h | 24522m | -20.1m/s | 0°C | 0% | 0hPa | 0V | 00:00:00 | 00:00:00 | 00:00:00 | |
| PETON7-10 | 2026-09-03 00:48:58 | 45.67406 | 15.04885 | 68° | 9km/h | 24525m | 6.0m/s | 0°C | 0% | 0hPa | 0V | 00:00:00 | 00:00:00 | 00:00:00 | |
| 9A1FER-3 | 2026-09-03 00:48:50 | 45.67398 | 15.04893 | 191° | 5km/h | 24480m | 5.9m/s | 0°C | 0% | 0hPa | 0V | 00:00:00 | 00:00:00 | 00:00:00 | |
| PETON7-10 | 2026-09-03 00:48:43 | 45.67396 | 15.04907 | 288° | 9km/h | 24442m | 5.0m/s | 0°C | 0% | 0hPa | 0V | 00:00:00 | 00:00:00 | 00:00:00 | |
| 9A1FER-3 | 2026-09-03 00:48:33 | 45.67399 | 15.04912 | 136° | 7km/h | 24388m | 5.3m/s | 0°C | 0% | 0hPa | 0V | 00:00:00 | 00:00:00 | 00:00:00 | |
| PETON7-10 | 2026-09-03 00:48:27 | 45.67406 | 15.04924 | 182° | 9km/h | 24355m | 7.2m/s | 0°C | 0% | 0hPa | 0V | 00:00:00 | 00:00:00 | 00:00:00 | |
| 9A1FER-3 | 2026-09-03 00:48:14 | 45.67422 | 15.04937 | 197° | 7km/h | 24283m | 4.8m/s | 0°C | 0% | 0hPa | 0V | 00:00:00 | 00:00:00 | 00:00:00 | |
| PETON7-10 | 2026-09-03 00:48:12 | 45.67428 | 15.04937 | 137° | 7km/h | 24271m | 5.8m/s | 0°C | 0% | 0hPa | 0V | 00:00:00 | 00:00:00 | 00:00:00 | |
| 9A1FER-3 | 2026-09-03 00:47:59 | 45.67437 | 15.04936 | 347° | 5km/h | 24200m | 7.4m/s | 0°C | 0% | 0hPa | 0V | 00:00:00 | 00:00:00 | 00:00:00 | |
| PETON7-10 | 2026-09-03 00:47:56 | 45.67439 | 15.04940 | 195° | 7km/h | 24181m | 4.2m/s | 0°C | 0% | 0hPa | 0V | 00:00:00 | 00:00:00 | 00:00:00 | |
| 9A1FER-3 | 2026-09-03 00:47:42 | 45.67442 | 15.04930 | 132° | 9km/h | 24102m | 4.6m/s | 0°C | 0% | 0hPa | 0V | 00:00:00 | 00:00:00 | 00:00:00 | |
| PETON7-10 | 2026-09-03 00:47:40 | 45.67445 | 15.04930 | 238° | 9km/h | 24090m | 5.4m/s | 0°C | 0% | 0hPa | 0V | 00:00:00 | 00:00:00 | 00:00:00 | |
| 9A1FER-3 | 2026-09-03 00:47:27 | 45.67456 | 15.04937 | 174° | 9km/h | 24020m | 6.2m/s | 0°C | 0% | 0hPa | 0V | 00:00:00 | 00:00:00 | 00:00:00 | |
| PETON7-10 | 2026-09-03 00:47:25 | 45.67458 | 15.04934 | 138° | 9km/h | 24009m | 4.5m/s | 0°C | 0% | 0hPa | 0V | 00:00:00 | 00:00:00 | 00:00:00 | |
| 9A1FER-3 | 2026-09-03 00:47:12 | 45.67476 | 15.04917 | 139° | 15km/h | 23936m | 6.6m/s | 0°C | 0% | 0hPa | 0V | 00:00:00 | 00:00:00 | 00:00:00 | |
| PETON7-10 | 2026-09-03 00:47:10 | 45.67478 | 15.04915 | 125° | 15km/h | 23927m | 4.0m/s | 0°C | 0% | 0hPa | 0V | 00:00:00 | 00:00:00 | 00:00:00 | |
| 9A1FER-3 | 2026-09-03 00:46:56 | 45.67485 | 15.04840 | 75° | 13km/h | 23848m | 4.6m/s | 0°C | 0% | 0hPa | 0V | 00:00:00 | 00:00:00 | 00:00:00 | |
| PETON7-10 | 2026-09-03 00:46:54 | 45.67484 | 15.04832 | 107° | 11km/h | 23836m | 6.3m/s | 0°C | 0% | 0hPa | 0V | 00:00:00 | 00:00:00 | 00:00:00 | |
| 9A1FER-3 | 2026-09-03 00:46:41 | 45.67485 | 15.04781 | 324° | 11km/h | 23761m | 4.1m/s | 0°C | 0% | 0hPa | 0V | 00:00:00 | 00:00:00 | 00:00:00 | |
| PETON7-10 | 2026-09-03 00:46:37 | 45.67488 | 15.04775 | 102° | 9km/h | 23740m | 6.7m/s | 0°C | 0% | 0hPa | 0V | 00:00:00 | 00:00:00 | 00:00:00 | |
| 9A1FER-3 | 2026-09-03 00:46:26 | 45.67480 | 15.04784 | 246° | 15km/h | 23679m | 4.1m/s | 0°C | 0% | 0hPa | 0V | 00:00:00 | 00:00:00 | 00:00:00 | |
| PETON7-10 | 2026-09-03 00:46:22 | 45.67472 | 15.04786 | 330° | 16km/h | 23658m | 6.0m/s | 0°C | 0% | 0hPa | 0V | 00:00:00 | 00:00:00 | 00:00:00 | |
| 9A1FER-3 | 2026-09-03 00:46:10 | 45.67455 | 15.04841 | 270° | 16km/h | 23592m | 4.9m/s | 0°C | 0% | 0hPa | 0V | 00:00:00 | 00:00:00 | 00:00:00 | |
| PETON7-10 | 2026-09-03 00:46:07 | 45.67458 | 15.04861 | 261° | 16km/h | 23577m | 5.4m/s | 0°C | 0% | 0hPa | 0V | 00:00:00 | 00:00:00 | 00:00:00 | |
| 9A1FER-3 | 2026-09-03 00:45:55 | 45.67467 | 15.04924 | 221° | 16km/h | 23511m | 6.5m/s | 0°C | 0% | 0hPa | 0V | 00:00:00 | 00:00:00 | 00:00:00 | |
| PETON7-10 | 2026-09-03 00:45:51 | 45.67474 | 15.04944 | 288° | 16km/h | 23488m | 4.4m/s | 0°C | 0% | 0hPa | 0V | 00:00:00 | 00:00:00 | 00:00:00 | |
| 9A1FER-3 | 2026-09-03 00:45:40 | 45.67487 | 15.05006 | 285° | 11km/h | 23430m | 5.2m/s | 0°C | 0% | 0hPa | 0V | 00:00:00 | 00:00:00 | 00:00:00 | |
| PETON7-10 | 2026-09-03 00:45:36 | 45.67492 | 15.05021 | 222° | 11km/h | 23406m | 6.8m/s | 0°C | 0% | 0hPa | 0V | 00:00:00 | 00:00:00 | 00:00:00 | |
| 9A1FER-3 | 2026-09-03 00:45:25 | 45.67506 | 15.05041 | 176° | 7km/h | 23350m | 5.9m/s | 0°C | 0% | 0hPa | 0V | 00:00:00 | 00:00:00 | 00:00:00 | |
| PETON7-10 | 2026-09-03 00:45:21 | 45.67510 | 15.05044 | 254° | 9km/h | 23328m | 5.2m/s | 0°C | 0% | 0hPa | 0V | 00:00:00 | 00:00:00 | 00:00:00 | |
| 9A1FER-3 | 2026-09-03 00:45:10 | 45.67516 | 15.05028 | 255° | 13km/h | 23265m | 4.6m/s | 0°C | 0% | 0hPa | 0V | 00:00:00 | 00:00:00 | 00:00:00 | |
| PETON7-10 | 2026-09-03 00:45:06 | 45.67515 | 15.05014 | 87° | 15km/h | 23243m | 5.1m/s | 0°C | 0% | 0hPa | 0V | 00:00:00 | 00:00:00 | 00:00:00 | |
| 9A1FER-3 | 2026-09-03 00:44:55 | 45.67504 | 15.04964 | 81° | 18km/h | 23185m | 5.7m/s | 0°C | 0% | 0hPa | 0V | 00:00:00 | 00:00:00 | 00:00:00 | |
| PETON7-10 | 2026-09-03 00:44:50 | 45.67492 | 15.04947 | 38° | 20km/h | 23159m | 6.7m/s | 0°C | 0% | 0hPa | 0V | 00:00:00 | 00:00:00 | 00:00:00 | |
| PETON7-10 | 2026-09-03 00:44:35 | 45.67447 | 15.04858 | 56° | 18km/h | 23079m | 6.3m/s | 0°C | 0% | 0hPa | 0V | 00:00:00 | 00:00:00 | 00:00:00 | |
| 9A1FER-3 | 2026-09-03 00:44:25 | 45.67404 | 15.04818 | 31° | 15km/h | 23024m | 4.3m/s | 0°C | 0% | 0hPa | 0V | 00:00:00 | 00:00:00 | 00:00:00 | |
| PETON7-10 | 2026-09-03 00:44:20 | 45.67388 | 15.04804 | 26° | 13km/h | 22999m | 3.0m/s | 0°C | 0% | 0hPa | 0V | 00:00:00 | 00:00:00 | 00:00:00 | |
| 9A1FER-3 | 2026-09-03 00:44:10 | 45.67354 | 15.04796 | 168° | 9km/h | 22940m | 4.9m/s | 0°C | 0% | 0hPa | 0V | 00:00:00 | 00:00:00 | 00:00:00 | |
| PETON7-10 | 2026-09-03 00:44:05 | 45.67348 | 15.04793 | 356° | 9km/h | 22915m | 4.7m/s | 0°C | 0% | 0hPa | 0V | 00:00:00 | 00:00:00 | 00:00:00 | |
| 9A1FER-10 | 2026-09-03 00:44:03 | 45.67341 | 15.04794 | 5° | 9km/h | 22904m | 5.2m/s | 0°C | 0% | 0hPa | 0V | 00:00:00 | 00:00:00 | 00:00:00 | |
| PETON7-10 | 2026-09-03 00:43:50 | 45.67319 | 15.04810 | 233° | 11km/h | 22831m | 5.4m/s | 0°C | 0% | 0hPa | 0V | 00:00:00 | 00:00:00 | 00:00:00 | |
| 9A1FER-10 | 2026-09-03 00:43:48 | 45.67319 | 15.04814 | 292° | 13km/h | 22819m | 5.3m/s | 0°C | 0% | 0hPa | 0V | 00:00:00 | 00:00:00 | 00:00:00 | |
| 9A1FER-3 | 2026-09-03 00:43:38 | 45.67326 | 15.04849 | 193° | 15km/h | 22765m | 5.8m/s | 0°C | 0% | 0hPa | 0V | 00:00:00 | 00:00:00 | 00:00:00 | |
| PETON7-10 | 2026-09-03 00:43:35 | 45.67328 | 15.04860 | 275° | 18km/h | 22747m | 6.0m/s | 0°C | 0% | 0hPa | 0V | 00:00:00 | 00:00:00 | 00:00:00 | |
| 9A1FER-10 | 2026-09-03 00:43:33 | 45.67328 | 15.04878 | 268° | 15km/h | 22738m | 5.2m/s | 0°C | 0% | 0hPa | 0V | 00:00:00 | 00:00:00 | 00:00:00 | |
| 9A1FER-3 | 2026-09-03 00:43:22 | 45.67345 | 15.04927 | 235° | 16km/h | 22678m | 4.4m/s | 0°C | 0% | 0hPa | 0V | 00:00:00 | 00:00:00 | 00:00:00 | |
| PETON7-10 | 2026-09-03 00:43:20 | 45.67353 | 15.04935 | 209° | 16km/h | 22667m | 6.5m/s | 0°C | 0% | 0hPa | 0V | 00:00:00 | 00:00:00 | 00:00:00 | |
| 9A1FER-10 | 2026-09-03 00:43:18 | 45.67358 | 15.04939 | 227° | 16km/h | 22656m | 6.6m/s | 0°C | 0% | 0hPa | 0V | 00:00:00 | 00:00:00 | 00:00:00 | |
| 9A1FER-3 | 2026-09-03 00:43:07 | 45.67381 | 15.05000 | 221° | 16km/h | 22593m | 5.4m/s | 0°C | 0% | 0hPa | 0V | 00:00:00 | 00:00:00 | 00:00:00 | |
| PETON7-10 | 2026-09-03 00:43:05 | 45.67385 | 15.05009 | 252° | 13km/h | 22581m | 6.7m/s | 0°C | 0% | 0hPa | 0V | 00:00:00 | 00:00:00 | 00:00:00 | |
| 9A1FER-10 | 2026-09-03 00:43:04 | 45.67385 | 15.05019 | 264° | 15km/h | 22569m | 5.5m/s | 0°C | 0% | 0hPa | 0V | 00:00:00 | 00:00:00 | 00:00:00 | |
| 9A1FER-3 | 2026-09-03 00:42:52 | 45.67406 | 15.05070 | 273° | 15km/h | 22510m | 5.7m/s | 0°C | 0% | 0hPa | 0V | 00:00:00 | 00:00:00 | 00:00:00 | |
| PETON7-10 | 2026-09-03 00:42:50 | 45.67406 | 15.05080 | 263° | 15km/h | 22497m | 4.8m/s | 0°C | 0% | 0hPa | 0V | 00:00:00 | 00:00:00 | 00:00:00 | |
| 9A1FER-10 | 2026-09-03 00:42:48 | 45.67410 | 15.05088 | 210° | 16km/h | 22485m | 5.1m/s | 0°C | 0% | 0hPa | 0V | 00:00:00 | 00:00:00 | 00:00:00 | |
| 9A1FER-3 | 2026-09-03 00:42:37 | 45.67427 | 15.05141 | 212° | 13km/h | 22427m | 5.5m/s | 0°C | 0% | 0hPa | 0V | 00:00:00 | 00:00:00 | 00:00:00 | |
| PETON7-10 | 2026-09-03 00:42:35 | 45.67432 | 15.05148 | 244° | 11km/h | 22414m | 7.0m/s | 0°C | 0% | 0hPa | 0V | 00:00:00 | 00:00:00 | 00:00:00 | |
| 9A1FER-10 | 2026-09-03 00:42:33 | 45.67434 | 15.05163 | 265° | 15km/h | 22403m | 4.5m/s | 0°C | 0% | 0hPa | 0V | 00:00:00 | 00:00:00 | 00:00:00 | |
| 9A1FER-3 | 2026-09-03 00:42:22 | 45.67440 | 15.05200 | 291° | 9km/h | 22341m | 5.3m/s | 0°C | 0% | 0hPa | 0V | 00:00:00 | 00:00:00 | 00:00:00 | |
| PETON7-10 | 2026-09-03 00:42:20 | 45.67439 | 15.05206 | 316° | 9km/h | 22328m | 5.5m/s | 0°C | 0% | 0hPa | 0V | 00:00:00 | 00:00:00 | 00:00:00 | |
| 9A1FER-10 | 2026-09-03 00:42:18 | 45.67438 | 15.05210 | 238° | 13km/h | 22318m | 5.2m/s | 0°C | 0% | 0hPa | 0V | 00:00:00 | 00:00:00 | 00:00:00 | |
| 9A1FER-3 | 2026-09-03 00:42:07 | 45.67431 | 15.05247 | 247° | 15km/h | 22259m | 4.2m/s | 0°C | 0% | 0hPa | 0V | 00:00:00 | 00:00:00 | 00:00:00 | |
| PETON7-10 | 2026-09-03 00:42:05 | 45.67431 | 15.05252 | 330° | 16km/h | 22249m | 6.6m/s | 0°C | 0% | 0hPa | 0V | 00:00:00 | 00:00:00 | 00:00:00 | |
| 9A1FER-10 | 2026-09-03 00:42:01 | 45.67420 | 15.05264 | 315° | 18km/h | 22226m | 5.1m/s | 0°C | 0% | 0hPa | 0V | 00:00:00 | 00:00:00 | 00:00:00 | |
| 9A1FER-3 | 2026-09-03 00:41:52 | 45.67394 | 15.05308 | 294° | 16km/h | 22175m | 5.4m/s | 0°C | 0% | 0hPa | 0V | 00:00:00 | 00:00:00 | 00:00:00 | |
| PETON7-10 | 2026-09-03 00:41:50 | 45.67390 | 15.05321 | 296° | 16km/h | 22166m | 5.8m/s | 0°C | 0% | 0hPa | 0V | 00:00:00 | 00:00:00 | 00:00:00 | |
| 9A1FER-10 | 2026-09-03 00:41:45 | 45.67381 | 15.05347 | 298° | 15km/h | 22138m | 6.5m/s | 0°C | 0% | 0hPa | 0V | 00:00:00 | 00:00:00 | 00:00:00 | |
| 9A1FER-3 | 2026-09-03 00:41:37 | 45.67380 | 15.05387 | 245° | 16km/h | 22095m | 5.7m/s | 0°C | 0% | 0hPa | 0V | 00:00:00 | 00:00:00 | 00:00:00 | |
| PETON7-10 | 2026-09-03 00:41:33 | 45.67386 | 15.05404 | 271° | 13km/h | 22072m | 6.2m/s | 0°C | 0% | 0hPa | 0V | 00:00:00 | 00:00:00 | 00:00:00 | |
| 9A1FER-10 | 2026-09-03 00:41:30 | 45.67386 | 15.05420 | 255° | 16km/h | 22056m | 5.5m/s | 0°C | 0% | 0hPa | 0V | 00:00:00 | 00:00:00 | 00:00:00 | |
| 9A1FER-3 | 2026-09-03 00:41:22 | 45.67412 | 15.05455 | 257° | 16km/h | 22011m | 5.0m/s | 0°C | 0% | 0hPa | 0V | 00:00:00 | 00:00:00 | 00:00:00 | |
| PETON7-10 | 2026-09-03 00:41:18 | 45.67422 | 15.05470 | 198° | 16km/h | 21993m | 2.6m/s | 0°C | 0% | 0hPa | 0V | 00:00:00 | 00:00:00 | 00:00:00 | |
| 9A1FER-10 | 2026-09-03 00:41:15 | 45.67436 | 15.05482 | 223° | 15km/h | 21979m | 5.5m/s | 0°C | 0% | 0hPa | 0V | 00:00:00 | 00:00:00 | 00:00:00 | |
| 9A1FER-3 | 2026-09-03 00:41:07 | 45.67445 | 15.05517 | 223° | 13km/h | 21936m | 5.4m/s | 0°C | 0% | 0hPa | 0V | 00:00:00 | 00:00:00 | 00:00:00 | |
| PETON7-10 | 2026-09-03 00:41:03 | 45.67450 | 15.05537 | 288° | 11km/h | 21914m | 5.9m/s | 0°C | 0% | 0hPa | 0V | 00:00:00 | 00:00:00 | 00:00:00 | |
| 9A1FER-10 | 2026-09-03 00:41:00 | 45.67446 | 15.05549 | 278° | 11km/h | 21898m | 3.7m/s | 0°C | 0% | 0hPa | 0V | 00:00:00 | 00:00:00 | 00:00:00 | |
| 9A1FER-3 | 2026-09-03 00:40:51 | 45.67449 | 15.05585 | 314° | 9km/h | 21854m | 4.6m/s | 0°C | 0% | 0hPa | 0V | 00:00:00 | 00:00:00 | 00:00:00 | |
| PETON7-10 | 2026-09-03 00:40:48 | 45.67445 | 15.05594 | 283° | 13km/h | 21840m | 5.5m/s | 0°C | 0% | 0hPa | 0V | 00:00:00 | 00:00:00 | 00:00:00 | |
| 9A1FER-10 | 2026-09-03 00:40:45 | 45.67449 | 15.05596 | 217° | 11km/h | 21823m | 6.5m/s | 0°C | 0% | 0hPa | 0V | 00:00:00 | 00:00:00 | 00:00:00 | |
| 9A1FER-3 | 2026-09-03 00:40:36 | 45.67455 | 15.05622 | 176° | 15km/h | 21776m | 6.0m/s | 0°C | 0% | 0hPa | 0V | 00:00:00 | 00:00:00 | 00:00:00 | |
| 9A1FER-10 | 2026-09-03 00:40:29 | 45.67475 | 15.05639 | 176° | 16km/h | 21744m | 4.7m/s | 0°C | 0% | 0hPa | 0V | 00:00:00 | 00:00:00 | 00:00:00 | |
| 9A1FER-3 | 2026-09-03 00:40:21 | 45.67501 | 15.05662 | 224° | 22km/h | 21700m | 4.4m/s | 0°C | 0% | 0hPa | 0V | 00:00:00 | 00:00:00 | 00:00:00 | |
| 9A1FER-10 | 2026-09-03 00:40:14 | 45.67532 | 15.05679 | 208° | 26km/h | 21662m | 5.3m/s | 0°C | 0% | 0hPa | 0V | 00:00:00 | 00:00:00 | 00:00:00 | |
| 9A1FER-3 | 2026-09-03 00:40:06 | 45.67580 | 15.05708 | 205° | 26km/h | 21623m | 4.7m/s | 0°C | 0% | 0hPa | 0V | 00:00:00 | 00:00:00 | 00:00:00 | |
| 9A1FER-10 | 2026-09-03 00:39:59 | 45.67625 | 15.05719 | 176° | 27km/h | 21591m | 5.9m/s | 0°C | 0% | 0hPa | 0V | 00:00:00 | 00:00:00 | 00:00:00 | |
| PETON7-10 | 2026-09-03 00:39:57 | 45.67639 | 15.05719 | 185° | 29km/h | 21580m | 5.7m/s | 0°C | 0% | 0hPa | 0V | 00:00:00 | 00:00:00 | 00:00:00 | |
| 9A1FER-3 | 2026-09-03 00:39:51 | 45.67678 | 15.05719 | 182° | 33km/h | 21550m | 5.6m/s | 0°C | 0% | 0hPa | 0V | 00:00:00 | 00:00:00 | 00:00:00 | |
| PETON7-10 | 2026-09-03 00:39:41 | 45.67753 | 15.05691 | 167° | 33km/h | 21499m | 5.4m/s | 0°C | 0% | 0hPa | 0V | 00:00:00 | 00:00:00 | 00:00:00 | |
| 9A1FER-3 | 2026-09-03 00:39:36 | 45.67797 | 15.05680 | 165° | 31km/h | 21473m | 4.4m/s | 0°C | 0% | 0hPa | 0V | 00:00:00 | 00:00:00 | 00:00:00 | |
| 9A1FER-10 | 2026-09-03 00:39:29 | 45.67847 | 15.05636 | 148° | 33km/h | 21438m | 5.0m/s | 0°C | 0% | 0hPa | 0V | 00:00:00 | 00:00:00 | 00:00:00 | |
| PETON7-10 | 2026-09-03 00:39:26 | 45.67872 | 15.05616 | 155° | 29km/h | 21423m | 5.3m/s | 0°C | 0% | 0hPa | 0V | 00:00:00 | 00:00:00 | 00:00:00 | |
| 9A1FER-3 | 2026-09-03 00:39:22 | 45.67901 | 15.05595 | 154° | 33km/h | 21397m | 5.2m/s | 0°C | 0% | 0hPa | 0V | 00:00:00 | 00:00:00 | 00:00:00 | |
| 9A1FER-10 | 2026-09-03 00:39:14 | 45.67951 | 15.05543 | 125° | 29km/h | 21360m | 6.3m/s | 0°C | 0% | 0hPa | 0V | 00:00:00 | 00:00:00 | 00:00:00 | |
| PETON7-10 | 2026-09-03 00:39:10 | 45.67969 | 15.05516 | 142° | 27km/h | 21339m | 4.1m/s | 0°C | 0% | 0hPa | 0V | 00:00:00 | 00:00:00 | 00:00:00 | |
| 9A1FER-3 | 2026-09-03 00:39:06 | 45.67994 | 15.05480 | 133° | 26km/h | 21320m | 5.5m/s | 0°C | 0% | 0hPa | 0V | 00:00:00 | 00:00:00 | 00:00:00 | |
| 9A1FER-10 | 2026-09-03 00:38:59 | 45.68026 | 15.05442 | 149° | 26km/h | 21285m | 4.6m/s | 0°C | 0% | 0hPa | 0V | 00:00:00 | 00:00:00 | 00:00:00 | |
| PETON7-10 | 2026-09-03 00:38:54 | 45.68047 | 15.05406 | 120° | 26km/h | 21261m | 4.3m/s | 0°C | 0% | 0hPa | 0V | 00:00:00 | 00:00:00 | 00:00:00 | |
| 9A1FER-3 | 2026-09-03 00:38:51 | 45.68055 | 15.05377 | 103° | 26km/h | 21246m | 4.9m/s | 0°C | 0% | 0hPa | 0V | 00:00:00 | 00:00:00 | 00:00:00 | |
| 9A1FER-10 | 2026-09-03 00:38:44 | 45.68071 | 15.05323 | 99° | 26km/h | 21207m | 3.7m/s | 0°C | 0% | 0hPa | 0V | 00:00:00 | 00:00:00 | 00:00:00 | |
| PETON7-10 | 2026-09-03 00:38:39 | 45.68073 | 15.05274 | 109° | 26km/h | 21180m | 4.6m/s | 0°C | 0% | 0hPa | 0V | 00:00:00 | 00:00:00 | 00:00:00 | |
| 9A1FER-3 | 2026-09-03 00:38:36 | 45.68075 | 15.05249 | 84° | 24km/h | 21165m | 3.6m/s | 0°C | 0% | 0hPa | 0V | 00:00:00 | 00:00:00 | 00:00:00 | |
| 9A1FER-10 | 2026-09-03 00:38:29 | 45.68072 | 15.05185 | 100° | 27km/h | 21133m | 5.8m/s | 0°C | 0% | 0hPa | 0V | 00:00:00 | 00:00:00 | 00:00:00 | |
| PETON7-10 | 2026-09-03 00:38:24 | 45.68080 | 15.05135 | 95° | 26km/h | 21099m | 5.5m/s | 0°C | 0% | 0hPa | 0V | 00:00:00 | 00:00:00 | 00:00:00 | |
| 9A1FER-3 | 2026-09-03 00:38:21 | 45.68080 | 15.05120 | 88° | 26km/h | 21089m | 4.6m/s | 0°C | 0% | 0hPa | 0V | 00:00:00 | 00:00:00 | 00:00:00 | |
| 9A1FER-10 | 2026-09-03 00:38:14 | 45.68095 | 15.05045 | 89° | 20km/h | 21056m | 6.8m/s | 0°C | 0% | 0hPa | 0V | 00:00:00 | 00:00:00 | 00:00:00 | |
| PETON7-10 | 2026-09-03 00:38:07 | 45.68094 | 15.04995 | 126° | 20km/h | 21021m | 3.8m/s | 0°C | 0% | 0hPa | 0V | 00:00:00 | 00:00:00 | 00:00:00 | |
| 9A1FER-3 | 2026-09-03 00:38:06 | 45.68097 | 15.04989 | 120° | 18km/h | 21017m | 6.1m/s | 0°C | 0% | 0hPa | 0V | 00:00:00 | 00:00:00 | 00:00:00 | |
| 9A1FER-10 | 2026-09-03 00:37:59 | 45.68098 | 15.04941 | 72° | 18km/h | 20976m | 8.1m/s | 0°C | 0% | 0hPa | 0V | 00:00:00 | 00:00:00 | 00:00:00 | |
| PETON7-10 | 2026-09-03 00:37:52 | 45.68105 | 15.04897 | 110° | 18km/h | 20939m | 6.3m/s | 0°C | 0% | 0hPa | 0V | 00:00:00 | 00:00:00 | 00:00:00 | |
| 9A1FER-3 | 2026-09-03 00:37:51 | 45.68106 | 15.04892 | 110° | 18km/h | 20934m | 5.0m/s | 0°C | 0% | 0hPa | 0V | 00:00:00 | 00:00:00 | 00:00:00 | |
| 9A1FER-10 | 2026-09-03 00:37:44 | 45.68114 | 15.04849 | 109° | 22km/h | 20896m | 5.4m/s | 0°C | 0% | 0hPa | 0V | 00:00:00 | 00:00:00 | 00:00:00 | |
| 9A1FER-3 | 2026-09-03 00:37:36 | 45.68138 | 15.04806 | 138° | 18km/h | 20855m | 5.0m/s | 0°C | 0% | 0hPa | 0V | 00:00:00 | 00:00:00 | 00:00:00 | |
| 9A1FER-10 | 2026-09-03 00:37:29 | 45.68166 | 15.04766 | 125° | 16km/h | 20819m | 4.5m/s | 0°C | 0% | 0hPa | 0V | 00:00:00 | 00:00:00 | 00:00:00 | |
| PETON7-10 | 2026-09-03 00:37:21 | 45.68192 | 15.04742 | 157° | 15km/h | 20775m | 4.0m/s | 0°C | 0% | 0hPa | 0V | 00:00:00 | 00:00:00 | 00:00:00 | |
| 9A1FER-3 | 2026-09-03 00:37:20 | 45.68195 | 15.04739 | 146° | 15km/h | 20770m | 6.2m/s | 0°C | 0% | 0hPa | 0V | 00:00:00 | 00:00:00 | 00:00:00 | |
| 9A1FER-10 | 2026-09-03 00:37:14 | 45.68214 | 15.04723 | 153° | 15km/h | 20736m | 4.6m/s | 0°C | 0% | 0hPa | 0V | 00:00:00 | 00:00:00 | 00:00:00 | |
| PETON7-10 | 2026-09-03 00:37:06 | 45.68244 | 15.04714 | 176° | 16km/h | 20696m | 3.5m/s | 0°C | 0% | 0hPa | 0V | 00:00:00 | 00:00:00 | 00:00:00 | |
| 9A1FER-3 | 2026-09-03 00:37:05 | 45.68249 | 15.04713 | 173° | 16km/h | 20693m | 3.6m/s | 0°C | 0% | 0hPa | 0V | 00:00:00 | 00:00:00 | 00:00:00 | |
| 9A1FER-10 | 2026-09-03 00:36:59 | 45.68272 | 15.04705 | 178° | 20km/h | 20662m | 5.3m/s | 0°C | 0% | 0hPa | 0V | 00:00:00 | 00:00:00 | 00:00:00 | |
| PETON7-10 | 2026-09-03 00:36:51 | 45.68303 | 15.04694 | 161° | 24km/h | 20620m | 5.9m/s | 0°C | 0% | 0hPa | 0V | 00:00:00 | 00:00:00 | 00:00:00 | |
| 9A1FER-3 | 2026-09-03 00:36:50 | 45.68309 | 15.04692 | 179° | 22km/h | 20615m | 4.5m/s | 0°C | 0% | 0hPa | 0V | 00:00:00 | 00:00:00 | 00:00:00 | |
| 9A1FER-10 | 2026-09-03 00:36:43 | 45.68344 | 15.04682 | 147° | 24km/h | 20579m | 4.8m/s | 0°C | 0% | 0hPa | 0V | 00:00:00 | 00:00:00 | 00:00:00 | |
| 9A1FER-3 | 2026-09-03 00:36:35 | 45.68386 | 15.04651 | 159° | 24km/h | 20537m | 4.7m/s | 0°C | 0% | 0hPa | 0V | 00:00:00 | 00:00:00 | 00:00:00 | |
| PETON7-10 | 2026-09-03 00:36:34 | 45.68399 | 15.04643 | 151° | 26km/h | 20526m | 4.3m/s | 0°C | 0% | 0hPa | 0V | 00:00:00 | 00:00:00 | 00:00:00 | |
| 9A1FER-10 | 2026-09-03 00:36:28 | 45.68422 | 15.04626 | 138° | 26km/h | 20501m | 5.0m/s | 0°C | 0% | 0hPa | 0V | 00:00:00 | 00:00:00 | 00:00:00 | |
| 9A1FER-3 | 2026-09-03 00:36:20 | 45.68463 | 15.04585 | 163° | 31km/h | 20462m | 5.4m/s | 0°C | 0% | 0hPa | 0V | 00:00:00 | 00:00:00 | 00:00:00 | |
| PETON7-10 | 2026-09-03 00:36:18 | 45.68474 | 15.04580 | 155° | 29km/h | 20451m | 7.2m/s | 0°C | 0% | 0hPa | 0V | 00:00:00 | 00:00:00 | 00:00:00 | |
| 9A1FER-10 | 2026-09-03 00:36:13 | 45.68500 | 15.04548 | 146° | 33km/h | 20424m | 6.0m/s | 0°C | 0% | 0hPa | 0V | 00:00:00 | 00:00:00 | 00:00:00 | |
| 9A1FER-3 | 2026-09-03 00:36:05 | 45.68553 | 15.04490 | 122° | 31km/h | 20380m | 5.2m/s | 0°C | 0% | 0hPa | 0V | 00:00:00 | 00:00:00 | 00:00:00 | |
| PETON7-10 | 2026-09-03 00:36:02 | 45.68569 | 15.04469 | 149° | 33km/h | 20366m | 4.5m/s | 0°C | 0% | 0hPa | 0V | 00:00:00 | 00:00:00 | 00:00:00 | |
| 9A1FER-10 | 2026-09-03 00:35:58 | 45.68599 | 15.04444 | 130° | 31km/h | 20347m | 6.2m/s | 0°C | 0% | 0hPa | 0V | 00:00:00 | 00:00:00 | 00:00:00 | |
| 9A1FER-3 | 2026-09-03 00:35:50 | 45.68632 | 15.04370 | 150° | 31km/h | 20305m | 6.1m/s | 0°C | 0% | 0hPa | 0V | 00:00:00 | 00:00:00 | 00:00:00 | |
| PETON7-10 | 2026-09-03 00:35:45 | 45.68658 | 15.04326 | 104° | 27km/h | 20280m | 7.5m/s | 0°C | 0% | 0hPa | 0V | 00:00:00 | 00:00:00 | 00:00:00 | |
| 9A1FER-10 | 2026-09-03 00:35:43 | 45.68660 | 15.04310 | 95° | 31km/h | 20270m | 4.5m/s | 0°C | 0% | 0hPa | 0V | 00:00:00 | 00:00:00 | 00:00:00 | |
| 9A1FER-3 | 2026-09-03 00:35:35 | 45.68694 | 15.04232 | 122° | 31km/h | 20229m | 5.0m/s | 0°C | 0% | 0hPa | 0V | 00:00:00 | 00:00:00 | 00:00:00 | |
| PETON7-10 | 2026-09-03 00:35:29 | 45.68715 | 15.04178 | 134° | 29km/h | 20201m | 6.6m/s | 0°C | 0% | 0hPa | 0V | 00:00:00 | 00:00:00 | 00:00:00 | |
| 9A1FER-10 | 2026-09-03 00:35:28 | 45.68721 | 15.04169 | 131° | 35km/h | 20195m | 5.8m/s | 0°C | 0% | 0hPa | 0V | 00:00:00 | 00:00:00 | 00:00:00 | |
| 9A1FER-3 | 2026-09-03 00:35:20 | 45.68761 | 15.04086 | 118° | 29km/h | 20154m | 5.0m/s | 0°C | 0% | 0hPa | 0V | 00:00:00 | 00:00:00 | 00:00:00 | |
| 9A1FER-10 | 2026-09-03 00:35:14 | 45.68797 | 15.04020 | 120° | 27km/h | 20120m | 4.2m/s | 0°C | 0% | 0hPa | 0V | 00:00:00 | 00:00:00 | 00:00:00 | |
| 9A1FER-3 | 2026-09-03 00:35:01 | 45.68828 | 15.03909 | 109° | 26km/h | 20057m | 6.8m/s | 0°C | 0% | 0hPa | 0V | 00:00:00 | 00:00:00 | 00:00:00 | |
| 9A1FER-10 | 2026-09-03 00:34:58 | 45.68837 | 15.03886 | 115° | 26km/h | 20042m | 5.9m/s | 0°C | 0% | 0hPa | 0V | 00:00:00 | 00:00:00 | 00:00:00 | |
| PETON7-10 | 2026-09-03 00:34:47 | 45.68860 | 15.03792 | 100° | 27km/h | 19987m | 6.2m/s | 0°C | 0% | 0hPa | 0V | 00:00:00 | 00:00:00 | 00:00:00 | |
| 9A1FER-3 | 2026-09-03 00:34:46 | 45.68861 | 15.03784 | 102° | 26km/h | 19981m | 4.4m/s | 0°C | 0% | 0hPa | 0V | 00:00:00 | 00:00:00 | 00:00:00 | |
| 9A1FER-10 | 2026-09-03 00:34:43 | 45.68864 | 15.03756 | 104° | 22km/h | 19967m | 4.4m/s | 0°C | 0% | 0hPa | 0V | 00:00:00 | 00:00:00 | 00:00:00 | |
| 9A1FER-3 | 2026-09-03 00:34:31 | 45.68879 | 15.03658 | 108° | 16km/h | 19910m | 4.5m/s | 0°C | 0% | 0hPa | 0V | 00:00:00 | 00:00:00 | 00:00:00 | |
| 9A1FER-10 | 2026-09-03 00:34:28 | 45.68885 | 15.03642 | 128° | 16km/h | 19894m | 8.5m/s | 0°C | 0% | 0hPa | 0V | 00:00:00 | 00:00:00 | 00:00:00 | |
| 9A1FER-3 | 2026-09-03 00:34:16 | 45.68898 | 15.03579 | 119° | 16km/h | 19831m | 4.2m/s | 0°C | 0% | 0hPa | 0V | 00:00:00 | 00:00:00 | 00:00:00 | |
| PETON7-10 | 2026-09-03 00:34:15 | 45.68899 | 15.03575 | 104° | 15km/h | 19827m | 5.3m/s | 0°C | 0% | 0hPa | 0V | 00:00:00 | 00:00:00 | 00:00:00 | |
| 9A1FER-10 | 2026-09-03 00:34:13 | 45.68902 | 15.03560 | 106° | 15km/h | 19817m | 4.9m/s | 0°C | 0% | 0hPa | 0V | 00:00:00 | 00:00:00 | 00:00:00 | |
| 9A1FER-3 | 2026-09-03 00:34:01 | 45.68924 | 15.03516 | 132° | 9km/h | 19757m | 5.4m/s | 0°C | 0% | 0hPa | 0V | 00:00:00 | 00:00:00 | 00:00:00 | |
| 9A1FER-10 | 2026-09-03 00:33:58 | 45.68930 | 15.03511 | 194° | 11km/h | 19741m | 7.6m/s | 0°C | 0% | 0hPa | 0V | 00:00:00 | 00:00:00 | 00:00:00 | |
| PETON7-10 | 2026-09-03 00:33:51 | 45.68943 | 15.03503 | 130° | 15km/h | 19706m | 6.5m/s | 0°C | 0% | 0hPa | 0V | 00:00:00 | 00:00:00 | 00:00:00 | |
| 9A1FER-3 | 2026-09-03 00:33:46 | 45.68955 | 15.03503 | 226° | 13km/h | 19681m | 5.2m/s | 0°C | 0% | 0hPa | 0V | 00:00:00 | 00:00:00 | 00:00:00 | |
| 9A1FER-10 | 2026-09-03 00:33:43 | 45.68964 | 15.03501 | 151° | 15km/h | 19666m | 4.4m/s | 0°C | 0% | 0hPa | 0V | 00:00:00 | 00:00:00 | 00:00:00 | |
| PETON7-10 | 2026-09-03 00:33:32 | 45.68997 | 15.03495 | 138° | 15km/h | 19614m | 6.5m/s | 0°C | 0% | 0hPa | 0V | 00:00:00 | 00:00:00 | 00:00:00 | |
| 9A1FER-3 | 2026-09-03 00:33:31 | 45.69000 | 15.03491 | 134° | 15km/h | 19607m | 6.3m/s | 0°C | 0% | 0hPa | 0V | 00:00:00 | 00:00:00 | 00:00:00 | |
| 9A1FER-10 | 2026-09-03 00:33:28 | 45.69012 | 15.03490 | 199° | 15km/h | 19591m | 5.4m/s | 0°C | 0% | 0hPa | 0V | 00:00:00 | 00:00:00 | 00:00:00 | |
| 9A1FER-3 | 2026-09-03 00:33:16 | 45.69052 | 15.03488 | 169° | 18km/h | 19531m | 2.5m/s | 0°C | 0% | 0hPa | 0V | 00:00:00 | 00:00:00 | 00:00:00 | |
| 9A1FER-3 | 2026-09-03 00:33:01 | 45.69112 | 15.03456 | 163° | 16km/h | 19452m | 6.3m/s | 0°C | 0% | 0hPa | 0V | 00:00:00 | 00:00:00 | 00:00:00 | |
| 9A1FER-10 | 2026-09-03 00:32:58 | 45.69127 | 15.03445 | 148° | 16km/h | 19435m | 4.9m/s | 0°C | 0% | 0hPa | 0V | 00:00:00 | 00:00:00 | 00:00:00 | |
| PETON7-10 | 2026-09-03 00:32:57 | 45.69130 | 15.03441 | 137° | 15km/h | 19430m | 3.9m/s | 0°C | 0% | 0hPa | 0V | 00:00:00 | 00:00:00 | 00:00:00 | |
| IV3AMH | 2026-09-03 00:32:53 | 45.69142 | 15.03425 | 141° | 15km/h | 19410m | 5.4m/s | 0°C | 0% | 0hPa | 0V | 00:00:00 | 00:00:00 | 00:00:00 | |
| 9A1FER-3 | 2026-09-03 00:32:46 | 45.69158 | 15.03395 | 128° | 15km/h | 19376m | 6.1m/s | 0°C | 0% | 0hPa | 0V | 00:00:00 | 00:00:00 | 00:00:00 | |
| 9A1FER-10 | 2026-09-03 00:32:43 | 45.69166 | 15.03384 | 146° | 15km/h | 19362m | 6.6m/s | 0°C | 0% | 0hPa | 0V | 00:00:00 | 00:00:00 | 00:00:00 | |
| PETON7-10 | 2026-09-03 00:32:42 | 45.69168 | 15.03382 | 133° | 15km/h | 19356m | 4.4m/s | 0°C | 0% | 0hPa | 0V | 00:00:00 | 00:00:00 | 00:00:00 | |
| 9A1FER-3 | 2026-09-03 00:32:31 | 45.69191 | 15.03334 | 130° | 20km/h | 19296m | 5.5m/s | 0°C | 0% | 0hPa | 0V | 00:00:00 | 00:00:00 | 00:00:00 | |
| 9A1FER-10 | 2026-09-03 00:32:28 | 45.69199 | 15.03325 | 159° | 22km/h | 19280m | 2.6m/s | 0°C | 0% | 0hPa | 0V | 00:00:00 | 00:00:00 | 00:00:00 | |
| PETON7-10 | 2026-09-03 00:32:24 | 45.69215 | 15.03307 | 119° | 26km/h | 19260m | 6.8m/s | 0°C | 0% | 0hPa | 0V | 00:00:00 | 00:00:00 | 00:00:00 | |
| 9A1FER-3 | 2026-09-03 00:32:16 | 45.69240 | 15.03259 | 138° | 29km/h | 19217m | 4.9m/s | 0°C | 0% | 0hPa | 0V | 00:00:00 | 00:00:00 | 00:00:00 | |
| 9A1FER-10 | 2026-09-03 00:32:13 | 45.69252 | 15.03236 | 116° | 29km/h | 19201m | 4.6m/s | 0°C | 0% | 0hPa | 0V | 00:00:00 | 00:00:00 | 00:00:00 | |
| PETON7-10 | 2026-09-03 00:32:08 | 45.69274 | 15.03192 | 123° | 29km/h | 19178m | 3.9m/s | 0°C | 0% | 0hPa | 0V | 00:00:00 | 00:00:00 | 00:00:00 | |
| 9A1FER-3 | 2026-09-03 00:32:00 | 45.69300 | 15.03113 | 123° | 29km/h | 19137m | 5.8m/s | 0°C | 0% | 0hPa | 0V | 00:00:00 | 00:00:00 | 00:00:00 | |
| 9A1FER-10 | 2026-09-03 00:31:58 | 45.69308 | 15.03095 | 121° | 29km/h | 19125m | 6.6m/s | 0°C | 0% | 0hPa | 0V | 00:00:00 | 00:00:00 | 00:00:00 | |
| PETON7-10 | 2026-09-03 00:31:51 | 45.69321 | 15.03031 | 108° | 31km/h | 19087m | 6.6m/s | 0°C | 0% | 0hPa | 0V | 00:00:00 | 00:00:00 | 00:00:00 | |
| 9A1FER-3 | 2026-09-03 00:31:45 | 45.69340 | 15.02970 | 108° | 33km/h | 19052m | 6.7m/s | 0°C | 0% | 0hPa | 0V | 00:00:00 | 00:00:00 | 00:00:00 | |
| 9A1FER-10 | 2026-09-03 00:31:43 | 45.69346 | 15.02947 | 110° | 33km/h | 19040m | 5.5m/s | 0°C | 0% | 0hPa | 0V | 00:00:00 | 00:00:00 | 00:00:00 | |
| PETON7-10 | 2026-09-03 00:31:31 | 45.69388 | 15.02820 | 113° | 38km/h | 18977m | 5.5m/s | 0°C | 0% | 0hPa | 0V | 00:00:00 | 00:00:00 | 00:00:00 | |
| 9A1FER-3 | 2026-09-03 00:31:30 | 45.69391 | 15.02810 | 123° | 37km/h | 18972m | 4.5m/s | 0°C | 0% | 0hPa | 0V | 00:00:00 | 00:00:00 | 00:00:00 | |
| 9A1FER-10 | 2026-09-03 00:31:28 | 45.69401 | 15.02792 | 132° | 40km/h | 18962m | 3.1m/s | 0°C | 0% | 0hPa | 0V | 00:00:00 | 00:00:00 | 00:00:00 | |
| PETON7-10 | 2026-09-03 00:31:15 | 45.69446 | 15.02624 | 107° | 42km/h | 18896m | 5.3m/s | 0°C | 0% | 0hPa | 0V | 00:00:00 | 00:00:00 | 00:00:00 | |
| 9A1FER-10 | 2026-09-03 00:31:13 | 45.69452 | 15.02592 | 101° | 44km/h | 18886m | 6.1m/s | 0°C | 0% | 0hPa | 0V | 00:00:00 | 00:00:00 | 00:00:00 | |
| 9A1FER-3 | 2026-09-03 00:31:00 | 45.69477 | 15.02388 | 98° | 42km/h | 18820m | 5.8m/s | 0°C | 0% | 0hPa | 0V | 00:00:00 | 00:00:00 | 00:00:00 | |
| 9A1FER-10 | 2026-09-03 00:30:58 | 45.69479 | 15.02362 | 90° | 38km/h | 18809m | 2.8m/s | 0°C | 0% | 0hPa | 0V | 00:00:00 | 00:00:00 | 00:00:00 | |
| PETON7-10 | 2026-09-03 00:30:56 | 45.69478 | 15.02334 | 88° | 44km/h | 18799m | 6.6m/s | 0°C | 0% | 0hPa | 0V | 00:00:00 | 00:00:00 | 00:00:00 | |
| 9A1FER-10 | 2026-09-03 00:30:43 | 45.69475 | 15.02151 | 79° | 35km/h | 18733m | 5.5m/s | 0°C | 0% | 0hPa | 0V | 00:00:00 | 00:00:00 | 00:00:00 | |
| PETON7-10 | 2026-09-03 00:30:41 | 45.69472 | 15.02123 | 88° | 33km/h | 18724m | 6.0m/s | 0°C | 0% | 0hPa | 0V | 00:00:00 | 00:00:00 | 00:00:00 | |
| 9A1FER-10 | 2026-09-03 00:30:28 | 45.69467 | 15.01965 | 80° | 33km/h | 18658m | 5.7m/s | 0°C | 0% | 0hPa | 0V | 00:00:00 | 00:00:00 | 00:00:00 | |
| PETON7-10 | 2026-09-03 00:30:25 | 45.69465 | 15.01933 | 90° | 33km/h | 18643m | 4.5m/s | 0°C | 0% | 0hPa | 0V | 00:00:00 | 00:00:00 | 00:00:00 | |
| 9A1FER-10 | 2026-09-03 00:30:12 | 45.69442 | 15.01785 | 81° | 27km/h | 18575m | 5.3m/s | 0°C | 0% | 0hPa | 0V | 00:00:00 | 00:00:00 | 00:00:00 | |
| PETON7-10 | 2026-09-03 00:30:09 | 45.69440 | 15.01754 | 78° | 24km/h | 18559m | 6.1m/s | 0°C | 0% | 0hPa | 0V | 00:00:00 | 00:00:00 | 00:00:00 | |
| 9A1FER-10 | 2026-09-03 00:29:57 | 45.69420 | 15.01647 | 71° | 24km/h | 18499m | 5.0m/s | 0°C | 0% | 0hPa | 0V | 00:00:00 | 00:00:00 | 00:00:00 | |
| PETON7-10 | 2026-09-03 00:29:54 | 45.69416 | 15.01624 | 62° | 26km/h | 18486m | 4.0m/s | 0°C | 0% | 0hPa | 0V | 00:00:00 | 00:00:00 | 00:00:00 | |
| 9A1FER-10 | 2026-09-03 00:29:42 | 45.69391 | 15.01523 | 84° | 18km/h | 18426m | 5.0m/s | 0°C | 0% | 0hPa | 0V | 00:00:00 | 00:00:00 | 00:00:00 | |
| PETON7-10 | 2026-09-03 00:29:39 | 45.69390 | 15.01501 | 85° | 13km/h | 18411m | 4.9m/s | 0°C | 0% | 0hPa | 0V | 00:00:00 | 00:00:00 | 00:00:00 | |
| 9A1FER-10 | 2026-09-03 00:29:27 | 45.69393 | 15.01428 | 113° | 15km/h | 18349m | 5.4m/s | 0°C | 0% | 0hPa | 0V | 00:00:00 | 00:00:00 | 00:00:00 | |
| 9A1FER-10 | 2026-09-03 00:29:12 | 45.69413 | 15.01351 | 106° | 26km/h | 18273m | 5.3m/s | 0°C | 0% | 0hPa | 0V | 00:00:00 | 00:00:00 | 00:00:00 | |
| 9A1FER-10 | 2026-09-03 00:28:57 | 45.69460 | 15.01231 | 136° | 33km/h | 18200m | 4.9m/s | 0°C | 0% | 0hPa | 0V | 00:00:00 | 00:00:00 | 00:00:00 | |
| 9A1FER-10 | 2026-09-03 00:28:42 | 45.69536 | 15.01082 | 115° | 38km/h | 18129m | 4.7m/s | 0°C | 0% | 0hPa | 0V | 00:00:00 | 00:00:00 | 00:00:00 | |
| 9A1FER-10 | 2026-09-03 00:28:27 | 45.69592 | 15.00892 | 112° | 35km/h | 18055m | 2.5m/s | 0°C | 0% | 0hPa | 0V | 00:00:00 | 00:00:00 | 00:00:00 | |
| 9A1FER-10 | 2026-09-03 00:28:12 | 45.69621 | 15.00707 | 99° | 26km/h | 17983m | 6.8m/s | 0°C | 0% | 0hPa | 0V | 00:00:00 | 00:00:00 | 00:00:00 | |
| 9A1FER-3 | 2026-09-03 00:28:10 | 45.69623 | 15.00686 | 100° | 27km/h | 17973m | 7.0m/s | 0°C | 0% | 0hPa | 0V | 00:00:00 | 00:00:00 | 00:00:00 | |
| 9A1FER-10 | 2026-09-03 00:27:57 | 45.69643 | 15.00572 | 110° | 33km/h | 17910m | 5.3m/s | 0°C | 0% | 0hPa | 0V | 00:00:00 | 00:00:00 | 00:00:00 | |
| 9A1FER-3 | 2026-09-03 00:27:54 | 45.69650 | 15.00540 | 103° | 37km/h | 17895m | 4.8m/s | 0°C | 0% | 0hPa | 0V | 00:00:00 | 00:00:00 | 00:00:00 | |
| 9A1FER-10 | 2026-09-03 00:27:42 | 45.69682 | 15.00407 | 105° | 35km/h | 17836m | 4.6m/s | 0°C | 0% | 0hPa | 0V | 00:00:00 | 00:00:00 | 00:00:00 | |
| 9A1FER-10 | 2026-09-03 00:27:27 | 45.69732 | 15.00229 | 116° | 46km/h | 17762m | 4.0m/s | 0°C | 0% | 0hPa | 0V | 00:00:00 | 00:00:00 | 00:00:00 | |
| 9A1FER-10 | 2026-09-03 00:27:12 | 45.69796 | 14.99996 | 115° | 53km/h | 17688m | 5.1m/s | 0°C | 0% | 0hPa | 0V | 00:00:00 | 00:00:00 | 00:00:00 | |
| 9A1FER-10 | 2026-09-03 00:26:57 | 45.69851 | 14.99720 | 99° | 55km/h | 17618m | 4.1m/s | 0°C | 0% | 0hPa | 0V | 00:00:00 | 00:00:00 | 00:00:00 | |
| 9A1FER-3 | 2026-09-03 00:26:54 | 45.69853 | 14.99666 | 95° | 55km/h | 17604m | 5.8m/s | 0°C | 0% | 0hPa | 0V | 00:00:00 | 00:00:00 | 00:00:00 | |
| 9A1FER-10 | 2026-09-03 00:26:42 | 45.69863 | 14.99428 | 87° | 53km/h | 17541m | 5.6m/s | 0°C | 0% | 0hPa | 0V | 00:00:00 | 00:00:00 | 00:00:00 | |
| 9A1FER-10 | 2026-09-03 00:26:27 | 45.69864 | 14.99145 | 91° | 46km/h | 17464m | 4.8m/s | 0°C | 0% | 0hPa | 0V | 00:00:00 | 00:00:00 | 00:00:00 | |
| 9A1FER-10 | 2026-09-03 00:26:12 | 45.69869 | 14.98899 | 101° | 40km/h | 17390m | 3.7m/s | 0°C | 0% | 0hPa | 0V | 00:00:00 | 00:00:00 | 00:00:00 | |
| 9A1FER-3 | 2026-09-03 00:26:11 | 45.69871 | 14.98883 | 100° | 42km/h | 17385m | 5.7m/s | 0°C | 0% | 0hPa | 0V | 00:00:00 | 00:00:00 | 00:00:00 | |
| 9A1FER-10 | 2026-09-03 00:25:57 | 45.69897 | 14.98681 | 116° | 46km/h | 17318m | 5.1m/s | 0°C | 0% | 0hPa | 0V | 00:00:00 | 00:00:00 | 00:00:00 | |
| 9A1FER-3 | 2026-09-03 00:25:54 | 45.69912 | 14.98637 | 118° | 47km/h | 17301m | 5.8m/s | 0°C | 0% | 0hPa | 0V | 00:00:00 | 00:00:00 | 00:00:00 | |
| 9A1FER-10 | 2026-09-03 00:25:42 | 45.69957 | 14.98447 | 103° | 47km/h | 17243m | 4.9m/s | 0°C | 0% | 0hPa | 0V | 00:00:00 | 00:00:00 | 00:00:00 | |
| 9A1FER-3 | 2026-09-03 00:25:37 | 45.69965 | 14.98357 | 98° | 46km/h | 17218m | 5.3m/s | 0°C | 0% | 0hPa | 0V | 00:00:00 | 00:00:00 | 00:00:00 | |
| 9A1FER-10 | 2026-09-03 00:25:27 | 45.69975 | 14.98191 | 103° | 40km/h | 17170m | 3.7m/s | 0°C | 0% | 0hPa | 0V | 00:00:00 | 00:00:00 | 00:00:00 | |
| 9A1FER-3 | 2026-09-03 00:25:21 | 45.69992 | 14.98107 | 108° | 44km/h | 17140m | 5.2m/s | 0°C | 0% | 0hPa | 0V | 00:00:00 | 00:00:00 | 00:00:00 | |
| 9A1FER-10 | 2026-09-03 00:25:12 | 45.70019 | 14.97986 | 120° | 44km/h | 17099m | 4.3m/s | 0°C | 0% | 0hPa | 0V | 00:00:00 | 00:00:00 | 00:00:00 | |
| 9A1FER-3 | 2026-09-03 00:25:06 | 45.70047 | 14.97905 | 119° | 46km/h | 17069m | 3.7m/s | 0°C | 0% | 0hPa | 0V | 00:00:00 | 00:00:00 | 00:00:00 | |
| 9A1FER-10 | 2026-09-03 00:24:57 | 45.70099 | 14.97784 | 126° | 53km/h | 17027m | 7.6m/s | 0°C | 0% | 0hPa | 0V | 00:00:00 | 00:00:00 | 00:00:00 | |
| 9A1FER-3 | 2026-09-03 00:24:51 | 45.70137 | 14.97695 | 121° | 55km/h | 16997m | 3.2m/s | 0°C | 0% | 0hPa | 0V | 00:00:00 | 00:00:00 | 00:00:00 | |
| 9A1FER-10 | 2026-09-03 00:24:42 | 45.70197 | 14.97539 | 118° | 60km/h | 16953m | 2.5m/s | 0°C | 0% | 0hPa | 0V | 00:00:00 | 00:00:00 | 00:00:00 | |
| 9A1FER-3 | 2026-09-03 00:24:35 | 45.70238 | 14.97402 | 119° | 68km/h | 16917m | 4.0m/s | 0°C | 0% | 0hPa | 0V | 00:00:00 | 00:00:00 | 00:00:00 | |
| 9A1FER-10 | 2026-09-03 00:24:27 | 45.70291 | 14.97234 | 109° | 71km/h | 16879m | 4.1m/s | 0°C | 0% | 0hPa | 0V | 00:00:00 | 00:00:00 | 00:00:00 | |
| 9A1FER-3 | 2026-09-03 00:24:20 | 45.70348 | 14.97075 | 117° | 69km/h | 16849m | 3.7m/s | 0°C | 0% | 0hPa | 0V | 00:00:00 | 00:00:00 | 00:00:00 | |
| 9A1FER-10 | 2026-09-03 00:24:12 | 45.70404 | 14.96886 | 113° | 66km/h | 16817m | 4.4m/s | 0°C | 0% | 0hPa | 0V | 00:00:00 | 00:00:00 | 00:00:00 | |
| 9A1FER-3 | 2026-09-03 00:24:04 | 45.70460 | 14.96710 | 117° | 66km/h | 16780m | 7.0m/s | 0°C | 0% | 0hPa | 0V | 00:00:00 | 00:00:00 | 00:00:00 | |
| 9A1FER-10 | 2026-09-03 00:23:57 | 45.70501 | 14.96559 | 118° | 62km/h | 16741m | 5.2m/s | 0°C | 0% | 0hPa | 0V | 00:00:00 | 00:00:00 | 00:00:00 | |
| 9A1FER-3 | 2026-09-03 00:23:49 | 45.70549 | 14.96391 | 120° | 64km/h | 16706m | 4.9m/s | 0°C | 0% | 0hPa | 0V | 00:00:00 | 00:00:00 | 00:00:00 | |
| 9A1FER-10 | 2026-09-03 00:23:42 | 45.70592 | 14.96247 | 105° | 64km/h | 16668m | 5.4m/s | 0°C | 0% | 0hPa | 0V | 00:00:00 | 00:00:00 | 00:00:00 | |
| 9A1FER-3 | 2026-09-03 00:23:32 | 45.70640 | 14.96029 | 107° | 69km/h | 16616m | 5.2m/s | 0°C | 0% | 0hPa | 0V | 00:00:00 | 00:00:00 | 00:00:00 | |
| 9A1FER-10 | 2026-09-03 00:23:27 | 45.70660 | 14.95913 | 106° | 71km/h | 16594m | 5.0m/s | 0°C | 0% | 0hPa | 0V | 00:00:00 | 00:00:00 | 00:00:00 | |
| 9A1FER-3 | 2026-09-03 00:23:17 | 45.70691 | 14.95666 | 97° | 69km/h | 16542m | 7.8m/s | 0°C | 0% | 0hPa | 0V | 00:00:00 | 00:00:00 | 00:00:00 | |
| 9A1FER-10 | 2026-09-03 00:23:12 | 45.70700 | 14.95538 | 93° | 66km/h | 16519m | 5.0m/s | 0°C | 0% | 0hPa | 0V | 00:00:00 | 00:00:00 | 00:00:00 | |
| 9A1FER-3 | 2026-09-03 00:23:00 | 45.70721 | 14.95246 | 98° | 57km/h | 16458m | 4.2m/s | 0°C | 0% | 0hPa | 0V | 00:00:00 | 00:00:00 | 00:00:00 | |
| 9A1FER-10 | 2026-09-03 00:22:57 | 45.70728 | 14.95182 | 98° | 55km/h | 16444m | 4.3m/s | 0°C | 0% | 0hPa | 0V | 00:00:00 | 00:00:00 | 00:00:00 | |
| 9A1FER-3 | 2026-09-03 00:22:45 | 45.70752 | 14.94945 | 103° | 53km/h | 16384m | 4.9m/s | 0°C | 0% | 0hPa | 0V | 00:00:00 | 00:00:00 | 00:00:00 | |
| 9A1FER-10 | 2026-09-03 00:22:42 | 45.70759 | 14.94887 | 95° | 53km/h | 16368m | 4.9m/s | 0°C | 0% | 0hPa | 0V | 00:00:00 | 00:00:00 | 00:00:00 | |
| 9A1FER-3 | 2026-09-03 00:22:29 | 45.70782 | 14.94642 | 99° | 53km/h | 16304m | 4.4m/s | 0°C | 0% | 0hPa | 0V | 00:00:00 | 00:00:00 | 00:00:00 | |
| 9A1FER-10 | 2026-09-03 00:22:27 | 45.70786 | 14.94603 | 103° | 53km/h | 16294m | 4.4m/s | 0°C | 0% | 0hPa | 0V | 00:00:00 | 00:00:00 | 00:00:00 | |
| 9A1FER-3 | 2026-09-03 00:22:14 | 45.70842 | 14.94370 | 99° | 47km/h | 16228m | 5.3m/s | 0°C | 0% | 0hPa | 0V | 00:00:00 | 00:00:00 | 00:00:00 | |
| 9A1FER-10 | 2026-09-03 00:22:12 | 45.70848 | 14.94335 | 112° | 46km/h | 16217m | 5.3m/s | 0°C | 0% | 0hPa | 0V | 00:00:00 | 00:00:00 | 00:00:00 | |
| 9A1FER-3 | 2026-09-03 00:21:59 | 45.70884 | 14.94127 | 116° | 42km/h | 16150m | 5.5m/s | 0°C | 0% | 0hPa | 0V | 00:00:00 | 00:00:00 | 00:00:00 | |
| 9A1FER-10 | 2026-09-03 00:21:57 | 45.70893 | 14.94099 | 114° | 44km/h | 16142m | 6.1m/s | 0°C | 0% | 0hPa | 0V | 00:00:00 | 00:00:00 | 00:00:00 | |
| 9A1FER-10 | 2026-09-03 00:21:42 | 45.70934 | 14.93875 | 104° | 38km/h | 16069m | 4.3m/s | 0°C | 0% | 0hPa | 0V | 00:00:00 | 00:00:00 | 00:00:00 | |
| 9A1FER-10 | 2026-09-03 00:21:27 | 45.70985 | 14.93682 | 117° | 38km/h | 15994m | 5.0m/s | 0°C | 0% | 0hPa | 0V | 00:00:00 | 00:00:00 | 00:00:00 | |
| 9A1FER-10 | 2026-09-03 00:21:12 | 45.71052 | 14.93499 | 124° | 46km/h | 15920m | 4.7m/s | 0°C | 0% | 0hPa | 0V | 00:00:00 | 00:00:00 | 00:00:00 | |
| 9A1FER-3 | 2026-09-03 00:21:11 | 45.71058 | 14.93487 | 131° | 47km/h | 15916m | 4.0m/s | 0°C | 0% | 0hPa | 0V | 00:00:00 | 00:00:00 | 00:00:00 | |
| 9A1FER-10 | 2026-09-03 00:20:57 | 45.71160 | 14.93301 | 131° | 58km/h | 15844m | 6.5m/s | 0°C | 0% | 0hPa | 0V | 00:00:00 | 00:00:00 | 00:00:00 | |
| 9A1FER-3 | 2026-09-03 00:20:56 | 45.71169 | 14.93286 | 132° | 58km/h | 15838m | 5.8m/s | 0°C | 0% | 0hPa | 0V | 00:00:00 | 00:00:00 | 00:00:00 | |
| 9A1FER-10 | 2026-09-03 00:20:42 | 45.71298 | 14.93044 | 128° | 71km/h | 15761m | 4.6m/s | 0°C | 0% | 0hPa | 0V | 00:00:00 | 00:00:00 | 00:00:00 | |
| 9A1FER-3 | 2026-09-03 00:20:41 | 45.71309 | 14.93022 | 123° | 69km/h | 15755m | 7.0m/s | 0°C | 0% | 0hPa | 0V | 00:00:00 | 00:00:00 | 00:00:00 | |
| 9A1FER-10 | 2026-09-03 00:20:27 | 45.71446 | 14.92721 | 119° | 62km/h | 15693m | 5.5m/s | 0°C | 0% | 0hPa | 0V | 00:00:00 | 00:00:00 | 00:00:00 | |
| 9A1FER-3 | 2026-09-03 00:20:25 | 45.71459 | 14.92683 | 118° | 60km/h | 15683m | 5.6m/s | 0°C | 0% | 0hPa | 0V | 00:00:00 | 00:00:00 | 00:00:00 | |
| 9A1FER-10 | 2026-09-03 00:20:12 | 45.71563 | 14.92430 | 122° | 60km/h | 15622m | 6.6m/s | 0°C | 0% | 0hPa | 0V | 00:00:00 | 00:00:00 | 00:00:00 | |
| 9A1FER-10 | 2026-09-03 00:19:57 | 45.71660 | 14.92134 | 111° | 55km/h | 15547m | 4.9m/s | 0°C | 0% | 0hPa | 0V | 00:00:00 | 00:00:00 | 00:00:00 | |
| 9A1FER-10 | 2026-09-03 00:19:42 | 45.71734 | 14.91864 | 115° | 53km/h | 15476m | 5.6m/s | 0°C | 0% | 0hPa | 0V | 00:00:00 | 00:00:00 | 00:00:00 | |
| 9A1FER-3 | 2026-09-03 00:19:41 | 45.71739 | 14.91847 | 114° | 53km/h | 15471m | 5.4m/s | 0°C | 0% | 0hPa | 0V | 00:00:00 | 00:00:00 | 00:00:00 | |
| 9A1FER-10 | 2026-09-03 00:19:27 | 45.71814 | 14.91603 | 114° | 55km/h | 15403m | 4.8m/s | 0°C | 0% | 0hPa | 0V | 00:00:00 | 00:00:00 | 00:00:00 | |
| 9A1FER-3 | 2026-09-03 00:19:25 | 45.71827 | 14.91568 | 124° | 53km/h | 15394m | 5.0m/s | 0°C | 0% | 0hPa | 0V | 00:00:00 | 00:00:00 | 00:00:00 | |
| 9A1FER-10 | 2026-09-03 00:19:12 | 45.71926 | 14.91360 | 128° | 53km/h | 15334m | 6.9m/s | 0°C | 0% | 0hPa | 0V | 00:00:00 | 00:00:00 | 00:00:00 | |
| 9A1FER-3 | 2026-09-03 00:19:10 | 45.71939 | 14.91332 | 121° | 53km/h | 15322m | 3.4m/s | 0°C | 0% | 0hPa | 0V | 00:00:00 | 00:00:00 | 00:00:00 | |
| 9A1FER-10 | 2026-09-03 00:18:57 | 45.72052 | 14.91131 | 129° | 55km/h | 15259m | 4.9m/s | 0°C | 0% | 0hPa | 0V | 00:00:00 | 00:00:00 | 00:00:00 | |
| 9A1FER-3 | 2026-09-03 00:18:55 | 45.72069 | 14.91099 | 128° | 55km/h | 15248m | 5.6m/s | 0°C | 0% | 0hPa | 0V | 00:00:00 | 00:00:00 | 00:00:00 | |
| 9A1FER-10 | 2026-09-03 00:18:42 | 45.72165 | 14.90882 | 119° | 58km/h | 15188m | 5.7m/s | 0°C | 0% | 0hPa | 0V | 00:00:00 | 00:00:00 | 00:00:00 | |
| 9A1FER-10 | 2026-09-03 00:18:27 | 45.72254 | 14.90595 | 115° | 55km/h | 15116m | 3.9m/s | 0°C | 0% | 0hPa | 0V | 00:00:00 | 00:00:00 | 00:00:00 | |
| 9A1FER-3 | 2026-09-03 00:18:19 | 45.72303 | 14.90465 | 111° | 55km/h | 15075m | 6.4m/s | 0°C | 0% | 0hPa | 0V | 00:00:00 | 00:00:00 | 00:00:00 | |
| 9A1FER-10 | 2026-09-03 00:18:12 | 45.72353 | 14.90341 | 125° | 58km/h | 15041m | 5.6m/s | 0°C | 0% | 0hPa | 0V | 00:00:00 | 00:00:00 | 00:00:00 | |
| 9A1FER-3 | 2026-09-03 00:18:04 | 45.72414 | 14.90204 | 122° | 60km/h | 15001m | 4.1m/s | 0°C | 0% | 0hPa | 0V | 00:00:00 | 00:00:00 | 00:00:00 | |
| 9A1FER-10 | 2026-09-03 00:17:57 | 45.72480 | 14.90080 | 132° | 64km/h | 14969m | 5.2m/s | 0°C | 0% | 0hPa | 0V | 00:00:00 | 00:00:00 | 00:00:00 | |
| 9A1FER-3 | 2026-09-03 00:17:49 | 45.72552 | 14.89929 | 126° | 66km/h | 14931m | 6.6m/s | 0°C | 0% | 0hPa | 0V | 00:00:00 | 00:00:00 | 00:00:00 | |
| 9A1FER-10 | 2026-09-03 00:17:42 | 45.72611 | 14.89791 | 121° | 66km/h | 14896m | 5.4m/s | 0°C | 0% | 0hPa | 0V | 00:00:00 | 00:00:00 | 00:00:00 | |
| 9A1FER-3 | 2026-09-03 00:17:34 | 45.72680 | 14.89627 | 122° | 64km/h | 14857m | 6.8m/s | 0°C | 0% | 0hPa | 0V | 00:00:00 | 00:00:00 | 00:00:00 | |
| 9A1FER-10 | 2026-09-03 00:17:27 | 45.72734 | 14.89483 | 117° | 64km/h | 14822m | 6.1m/s | 0°C | 0% | 0hPa | 0V | 00:00:00 | 00:00:00 | 00:00:00 | |
| 9A1FER-3 | 2026-09-03 00:17:18 | 45.72813 | 14.89308 | 127° | 68km/h | 14780m | 4.7m/s | 0°C | 0% | 0hPa | 0V | 00:00:00 | 00:00:00 | 00:00:00 | |
| 9A1FER-10 | 2026-09-03 00:17:12 | 45.72869 | 14.89191 | 120° | 66km/h | 14748m | 6.6m/s | 0°C | 0% | 0hPa | 0V | 00:00:00 | 00:00:00 | 00:00:00 | |
| 9A1FER-3 | 2026-09-03 00:17:03 | 45.72945 | 14.89008 | 123° | 64km/h | 14704m | 6.8m/s | 0°C | 0% | 0hPa | 0V | 00:00:00 | 00:00:00 | 00:00:00 | |
| 9A1FER-10 | 2026-09-03 00:16:57 | 45.72994 | 14.88887 | 118° | 62km/h | 14671m | 4.6m/s | 0°C | 0% | 0hPa | 0V | 00:00:00 | 00:00:00 | 00:00:00 | |
| 9A1FER-3 | 2026-09-03 00:16:47 | 45.73078 | 14.88694 | 124° | 66km/h | 14621m | 4.6m/s | 0°C | 0% | 0hPa | 0V | 00:00:00 | 00:00:00 | 00:00:00 | |
| 9A1FER-10 | 2026-09-03 00:16:42 | 45.73123 | 14.88604 | 130° | 68km/h | 14594m | 5.3m/s | 0°C | 0% | 0hPa | 0V | 00:00:00 | 00:00:00 | 00:00:00 | |
| 9A1FER-3 | 2026-09-03 00:16:30 | 45.73251 | 14.88384 | 133° | 69km/h | 14537m | 5.1m/s | 0°C | 0% | 0hPa | 0V | 00:00:00 | 00:00:00 | 00:00:00 | |
| 9A1FER-10 | 2026-09-03 00:16:27 | 45.73288 | 14.88327 | 131° | 69km/h | 14521m | 5.7m/s | 0°C | 0% | 0hPa | 0V | 00:00:00 | 00:00:00 | 00:00:00 | |
| 9A1FER-3 | 2026-09-03 00:16:14 | 45.73441 | 14.88083 | 131° | 71km/h | 14460m | 6.6m/s | 0°C | 0% | 0hPa | 0V | 00:00:00 | 00:00:00 | 00:00:00 | |
| 9A1FER-10 | 2026-09-03 00:16:12 | 45.73464 | 14.88047 | 132° | 71km/h | 14451m | 6.6m/s | 0°C | 0% | 0hPa | 0V | 00:00:00 | 00:00:00 | 00:00:00 | |
| 9A1FER-10 | 2026-09-03 00:15:57 | 45.73625 | 14.87740 | 128° | 64km/h | 14380m | 6.0m/s | 0°C | 0% | 0hPa | 0V | 00:00:00 | 00:00:00 | 00:00:00 | |
| 9A1FER-3 | 2026-09-03 00:15:56 | 45.73634 | 14.87721 | 124° | 64km/h | 14374m | 5.3m/s | 0°C | 0% | 0hPa | 0V | 00:00:00 | 00:00:00 | 00:00:00 | |
| 9A1FER-10 | 2026-09-03 00:15:42 | 45.73772 | 14.87462 | 132° | 69km/h | 14309m | 4.3m/s | 0°C | 0% | 0hPa | 0V | 00:00:00 | 00:00:00 | 00:00:00 | |
| 9A1FER-3 | 2026-09-03 00:15:41 | 45.73784 | 14.87444 | 133° | 69km/h | 14305m | 6.0m/s | 0°C | 0% | 0hPa | 0V | 00:00:00 | 00:00:00 | 00:00:00 | |
| 9A1FER-10 | 2026-09-03 00:15:27 | 45.73943 | 14.87179 | 131° | 69km/h | 14238m | 5.7m/s | 0°C | 0% | 0hPa | 0V | 00:00:00 | 00:00:00 | 00:00:00 | |
| 9A1FER-3 | 2026-09-03 00:15:25 | 45.73967 | 14.87143 | 133° | 69km/h | 14229m | 5.7m/s | 0°C | 0% | 0hPa | 0V | 00:00:00 | 00:00:00 | 00:00:00 | |
| 9A1FER-10 | 2026-09-03 00:15:12 | 45.74100 | 14.86881 | 125° | 68km/h | 14170m | 5.0m/s | 0°C | 0% | 0hPa | 0V | 00:00:00 | 00:00:00 | 00:00:00 | |
| 9A1FER-3 | 2026-09-03 00:15:10 | 45.74119 | 14.86839 | 124° | 68km/h | 14161m | 4.8m/s | 0°C | 0% | 0hPa | 0V | 00:00:00 | 00:00:00 | 00:00:00 | |
| 9A1FER-10 | 2026-09-03 00:14:57 | 45.74225 | 14.86565 | 117° | 64km/h | 14099m | 5.3m/s | 0°C | 0% | 0hPa | 0V | 00:00:00 | 00:00:00 | 00:00:00 | |
| 9A1FER-3 | 2026-09-03 00:14:54 | 45.74246 | 14.86504 | 114° | 62km/h | 14085m | 5.3m/s | 0°C | 0% | 0hPa | 0V | 00:00:00 | 00:00:00 | 00:00:00 | |
| 9A1FER-10 | 2026-09-03 00:14:42 | 45.74340 | 14.86266 | 119° | 64km/h | 14029m | 5.1m/s | 0°C | 0% | 0hPa | 0V | 00:00:00 | 00:00:00 | 00:00:00 | |
| 9A1FER-3 | 2026-09-03 00:14:39 | 45.74365 | 14.86208 | 125° | 64km/h | 14016m | 5.7m/s | 0°C | 0% | 0hPa | 0V | 00:00:00 | 00:00:00 | 00:00:00 | |
| 9A1FER-10 | 2026-09-03 00:14:27 | 45.74483 | 14.85990 | 135° | 66km/h | 13952m | 6.8m/s | 0°C | 0% | 0hPa | 0V | 00:00:00 | 00:00:00 | 00:00:00 | |
| 9A1FER-10 | 2026-09-03 00:14:12 | 45.74658 | 14.85731 | 136° | 75km/h | 13878m | 4.2m/s | 0°C | 0% | 0hPa | 0V | 00:00:00 | 00:00:00 | 00:00:00 | |
| 9A1FER-3 | 2026-09-03 00:14:09 | 45.74698 | 14.85673 | 136° | 75km/h | 13864m | 4.0m/s | 0°C | 0% | 0hPa | 0V | 00:00:00 | 00:00:00 | 00:00:00 | |
| 9A1FER-10 | 2026-09-03 00:13:57 | 45.74862 | 14.85453 | 140° | 82km/h | 13808m | 4.4m/s | 0°C | 0% | 0hPa | 0V | 00:00:00 | 00:00:00 | 00:00:00 | |
| 9A1FER-3 | 2026-09-03 00:13:54 | 45.74902 | 14.85395 | 134° | 84km/h | 13796m | 4.8m/s | 0°C | 0% | 0hPa | 0V | 00:00:00 | 00:00:00 | 00:00:00 | |
| 9A1FER-10 | 2026-09-03 00:13:42 | 45.75084 | 14.85148 | 134° | 82km/h | 13738m | 5.7m/s | 0°C | 0% | 0hPa | 0V | 00:00:00 | 00:00:00 | 00:00:00 | |
| 9A1FER-3 | 2026-09-03 00:13:39 | 45.75127 | 14.85082 | 136° | 82km/h | 13722m | 3.2m/s | 0°C | 0% | 0hPa | 0V | 00:00:00 | 00:00:00 | 00:00:00 | |
| 9A1FER-10 | 2026-09-03 00:13:27 | 45.75293 | 14.84822 | 131° | 77km/h | 13665m | 4.2m/s | 0°C | 0% | 0hPa | 0V | 00:00:00 | 00:00:00 | 00:00:00 | |
| 9A1FER-3 | 2026-09-03 00:13:23 | 45.75349 | 14.84731 | 134° | 75km/h | 13647m | 4.2m/s | 0°C | 0% | 0hPa | 0V | 00:00:00 | 00:00:00 | 00:00:00 | |
| 9A1FER-10 | 2026-09-03 00:13:11 | 45.75492 | 14.84481 | 130° | 73km/h | 13586m | 6.0m/s | 0°C | 0% | 0hPa | 0V | 00:00:00 | 00:00:00 | 00:00:00 | |
| 9A1FER-3 | 2026-09-03 00:13:08 | 45.75526 | 14.84420 | 129° | 69km/h | 13570m | 4.9m/s | 0°C | 0% | 0hPa | 0V | 00:00:00 | 00:00:00 | 00:00:00 | |
| 9A1FER-10 | 2026-09-03 00:12:56 | 45.75677 | 14.84194 | 134° | 71km/h | 13511m | 6.5m/s | 0°C | 0% | 0hPa | 0V | 00:00:00 | 00:00:00 | 00:00:00 | |
| 9A1FER-3 | 2026-09-03 00:12:53 | 45.75710 | 14.84143 | 135° | 71km/h | 13495m | 4.3m/s | 0°C | 0% | 0hPa | 0V | 00:00:00 | 00:00:00 | 00:00:00 | |
| 9A1FER-10 | 2026-09-03 00:12:41 | 45.75869 | 14.83928 | 135° | 75km/h | 13435m | 4.1m/s | 0°C | 0% | 0hPa | 0V | 00:00:00 | 00:00:00 | 00:00:00 | |
| 9A1FER-3 | 2026-09-03 00:12:38 | 45.75912 | 14.83871 | 139° | 78km/h | 13420m | 5.0m/s | 0°C | 0% | 0hPa | 0V | 00:00:00 | 00:00:00 | 00:00:00 | |
| 9A1FER-10 | 2026-09-03 00:12:26 | 45.76084 | 14.83662 | 147° | 78km/h | 13363m | 4.8m/s | 0°C | 0% | 0hPa | 0V | 00:00:00 | 00:00:00 | 00:00:00 | |
| 9A1FER-3 | 2026-09-03 00:12:13 | 45.76293 | 14.83446 | 145° | 84km/h | 13305m | 4.8m/s | 0°C | 0% | 0hPa | 0V | 00:00:00 | 00:00:00 | 00:00:00 | |
| 9A1FER-10 | 2026-09-03 00:12:11 | 45.76325 | 14.83414 | 145° | 82km/h | 13294m | 5.4m/s | 0°C | 0% | 0hPa | 0V | 00:00:00 | 00:00:00 | 00:00:00 | |
| 9A1FER-3 | 2026-09-03 00:11:53 | 45.76637 | 14.83100 | 145° | 89km/h | 13208m | 7.0m/s | 0°C | 0% | 0hPa | 0V | 00:00:00 | 00:00:00 | 00:00:00 | |
| 9A1FER-10 | 2026-09-03 00:11:41 | 45.76859 | 14.82875 | 146° | 91km/h | 13155m | 3.7m/s | 0°C | 0% | 0hPa | 0V | 00:00:00 | 00:00:00 | 00:00:00 | |
| 9A1FER-3 | 2026-09-03 00:11:38 | 45.76912 | 14.82814 | 143° | 91km/h | 13142m | 5.7m/s | 0°C | 0% | 0hPa | 0V | 00:00:00 | 00:00:00 | 00:00:00 | |
| 9A1FER-10 | 2026-09-03 00:11:26 | 45.77137 | 14.82578 | 143° | 97km/h | 13086m | 5.1m/s | 0°C | 0% | 0hPa | 0V | 00:00:00 | 00:00:00 | 00:00:00 | |
| 9A1FER-3 | 2026-09-03 00:11:23 | 45.77191 | 14.82523 | 144° | 99km/h | 13072m | 5.4m/s | 0°C | 0% | 0hPa | 0V | 00:00:00 | 00:00:00 | 00:00:00 | |
| 9A1FER-10 | 2026-09-03 00:11:11 | 45.77429 | 14.82262 | 145° | 106km/h | 13020m | 3.8m/s | 0°C | 0% | 0hPa | 0V | 00:00:00 | 00:00:00 | 00:00:00 | |
| 9A1FER-3 | 2026-09-03 00:11:08 | 45.77489 | 14.82190 | 140° | 106km/h | 13007m | 5.7m/s | 0°C | 0% | 0hPa | 0V | 00:00:00 | 00:00:00 | 00:00:00 | |
| 9A1FER-10 | 2026-09-03 00:10:56 | 45.77729 | 14.81882 | 138° | 106km/h | 12954m | 6.8m/s | 0°C | 0% | 0hPa | 0V | 00:00:00 | 00:00:00 | 00:00:00 | |
| 9A1FER-10 | 2026-09-03 00:10:41 | 45.78024 | 14.81494 | 135° | 108km/h | 12885m | 6.0m/s | 0°C | 0% | 0hPa | 0V | 00:00:00 | 00:00:00 | 00:00:00 | |
| 9A1FER-3 | 2026-09-03 00:10:31 | 45.78222 | 14.81219 | 138° | 106km/h | 12841m | 3.3m/s | 0°C | 0% | 0hPa | 0V | 00:00:00 | 00:00:00 | 00:00:00 | |
| 9A1FER-10 | 2026-09-03 00:10:26 | 45.78317 | 14.81089 | 135° | 110km/h | 12813m | 5.0m/s | 0°C | 0% | 0hPa | 0V | 00:00:00 | 00:00:00 | 00:00:00 | |
| 9A1FER-3 | 2026-09-03 00:10:16 | 45.78515 | 14.80812 | 133° | 111km/h | 12761m | 7.7m/s | 0°C | 0% | 0hPa | 0V | 00:00:00 | 00:00:00 | 00:00:00 | |
| 9A1FER-10 | 2026-09-03 00:10:11 | 45.78612 | 14.80670 | 138° | 110km/h | 12735m | 6.7m/s | 0°C | 0% | 0hPa | 0V | 00:00:00 | 00:00:00 | 00:00:00 | |
| 9A1FER-10 | 2026-09-03 00:09:56 | 45.78912 | 14.80257 | 135° | 113km/h | 12658m | 7.7m/s | 0°C | 0% | 0hPa | 0V | 00:00:00 | 00:00:00 | 00:00:00 | |
| 9A1FER-3 | 2026-09-03 00:09:42 | 45.79204 | 14.79877 | 137° | 110km/h | 12585m | 3.6m/s | 0°C | 0% | 0hPa | 0V | 00:00:00 | 00:00:00 | 00:00:00 | |
| 9A1FER-10 | 2026-09-03 00:09:41 | 45.79225 | 14.79849 | 139° | 108km/h | 12579m | 7.9m/s | 0°C | 0% | 0hPa | 0V | 00:00:00 | 00:00:00 | 00:00:00 | |
| 9A1FER-3 | 2026-09-03 00:09:27 | 45.79521 | 14.79497 | 141° | 108km/h | 12507m | 4.6m/s | 0°C | 0% | 0hPa | 0V | 00:00:00 | 00:00:00 | 00:00:00 | |
| 9A1FER-10 | 2026-09-03 00:09:26 | 45.79541 | 14.79473 | 140° | 106km/h | 12500m | 8.7m/s | 0°C | 0% | 0hPa | 0V | 00:00:00 | 00:00:00 | 00:00:00 | |
| 9A1FER-3 | 2026-09-03 00:09:12 | 45.79823 | 14.79122 | 142° | 108km/h | 12425m | 5.8m/s | 0°C | 0% | 0hPa | 0V | 00:00:00 | 00:00:00 | 00:00:00 | |
| 9A1FER-10 | 2026-09-03 00:09:11 | 45.79846 | 14.79098 | 147° | 110km/h | 12421m | 3.7m/s | 0°C | 0% | 0hPa | 0V | 00:00:00 | 00:00:00 | 00:00:00 | |
| 9A1FER-3 | 2026-09-03 00:08:57 | 45.80165 | 14.78789 | 147° | 120km/h | 12351m | 4.5m/s | 0°C | 0% | 0hPa | 0V | 00:00:00 | 00:00:00 | 00:00:00 | |
| 9A1FER-10 | 2026-09-03 00:08:56 | 45.80190 | 14.78766 | 148° | 120km/h | 12345m | 7.1m/s | 0°C | 0% | 0hPa | 0V | 00:00:00 | 00:00:00 | 00:00:00 | |
| 9A1FER-10 | 2026-09-03 00:08:41 | 45.80582 | 14.78414 | 149° | 128km/h | 12269m | 2.7m/s | 0°C | 0% | 0hPa | 0V | 00:00:00 | 00:00:00 | 00:00:00 | |
| 9A1FER-10 | 2026-09-03 00:08:25 | 45.81010 | 14.78007 | 147° | 119km/h | 12188m | 3.7m/s | 0°C | 0% | 0hPa | 0V | 00:00:00 | 00:00:00 | 00:00:00 | |
| OE3JTB-15 | 2026-09-03 00:08:21 | 45.81112 | 14.77905 | 145° | 124km/h | 12167m | 3.4m/s | 0°C | 0% | 0hPa | 0V | 00:00:00 | 00:00:00 | 00:00:00 | |
| 9A1FER-3 | 2026-09-03 00:08:10 | 45.81388 | 14.77628 | 145° | 115km/h | 12116m | 4.3m/s | 0°C | 0% | 0hPa | 0V | 00:00:00 | 00:00:00 | 00:00:00 | |
| 9A1FER-10 | 2026-09-03 00:08:08 | 45.81434 | 14.77583 | 146° | 115km/h | 12108m | 3.1m/s | 0°C | 0% | 0hPa | 0V | 00:00:00 | 00:00:00 | 00:00:00 | |
| 9A1FER-3 | 2026-09-03 00:07:55 | 45.81743 | 14.77264 | 143° | 115km/h | 12045m | 4.4m/s | 0°C | 0% | 0hPa | 0V | 00:00:00 | 00:00:00 | 00:00:00 | |
| 9A1FER-10 | 2026-09-03 00:07:53 | 45.81790 | 14.77210 | 141° | 115km/h | 12036m | 5.0m/s | 0°C | 0% | 0hPa | 0V | 00:00:00 | 00:00:00 | 00:00:00 | |
| 9A1FER-10 | 2026-09-03 00:07:38 | 45.82147 | 14.76846 | 149° | 115km/h | 11964m | 5.1m/s | 0°C | 0% | 0hPa | 0V | 00:00:00 | 00:00:00 | 00:00:00 | |
| 9A1FER-10 | 2026-09-03 00:07:23 | 45.82511 | 14.76497 | 147° | 120km/h | 11890m | 5.3m/s | 0°C | 0% | 0hPa | 0V | 00:00:00 | 00:00:00 | 00:00:00 | |
| 9A1FER-10 | 2026-09-03 00:07:08 | 45.82891 | 14.76136 | 147° | 122km/h | 11810m | 5.7m/s | 0°C | 0% | 0hPa | 0V | 00:00:00 | 00:00:00 | 00:00:00 | |
| 9A1FER-3 | 2026-09-03 00:06:53 | 45.83273 | 14.75790 | 152° | 120km/h | 11724m | 6.2m/s | 0°C | 0% | 0hPa | 0V | 00:00:00 | 00:00:00 | 00:00:00 | |
| 9A1FER-3 | 2026-09-03 00:06:38 | 45.83660 | 14.75446 | 147° | 122km/h | 11636m | 6.5m/s | 0°C | 0% | 0hPa | 0V | 00:00:00 | 00:00:00 | 00:00:00 | |
| 9A1FER-10 | 2026-09-03 00:06:28 | 45.83920 | 14.75219 | 149° | 130km/h | 11583m | 5.5m/s | 0°C | 0% | 0hPa | 0V | 00:00:00 | 00:00:00 | 00:00:00 | |
| 9A1FER-3 | 2026-09-03 00:06:23 | 45.84054 | 14.75106 | 149° | 124km/h | 11556m | 4.3m/s | 0°C | 0% | 0hPa | 0V | 00:00:00 | 00:00:00 | 00:00:00 | |
| 9A1FER-3 | 2026-09-03 00:06:07 | 45.84477 | 14.74715 | 149° | 128km/h | 11467m | 6.6m/s | 0°C | 0% | 0hPa | 0V | 00:00:00 | 00:00:00 | 00:00:00 | |
| 9A1FER-3 | 2026-09-03 00:05:51 | 45.84918 | 14.74336 | 147° | 130km/h | 11378m | 5.7m/s | 0°C | 0% | 0hPa | 0V | 00:00:00 | 00:00:00 | 00:00:00 | |
| 9A1FER-3 | 2026-09-03 00:05:36 | 45.85335 | 14.73967 | 148° | 137km/h | 11295m | 4.2m/s | 0°C | 0% | 0hPa | 0V | 00:00:00 | 00:00:00 | 00:00:00 | |
| 9A1FER-3 | 2026-09-03 00:05:21 | 45.85786 | 14.73587 | 150° | 139km/h | 11212m | 4.2m/s | 0°C | 0% | 0hPa | 0V | 00:00:00 | 00:00:00 | 00:00:00 | |
| 9A1FER-3 | 2026-09-03 00:05:05 | 45.86268 | 14.73175 | 149° | 137km/h | 11128m | 7.4m/s | 0°C | 0% | 0hPa | 0V | 00:00:00 | 00:00:00 | 00:00:00 | |
| 9A1FER-10 | 2026-09-03 00:04:42 | 45.86974 | 14.72565 | 147° | 139km/h | 11000m | 5.4m/s | 0°C | 0% | 0hPa | 0V | 00:00:00 | 00:00:00 | 00:00:00 | |
| 9A1FER-3 | 2026-09-03 00:04:35 | 45.87152 | 14.72409 | 150° | 133km/h | 10969m | 4.3m/s | 0°C | 0% | 0hPa | 0V | 00:00:00 | 00:00:00 | 00:00:00 | |
| 9A1FER-10 | 2026-09-03 00:04:23 | 45.87498 | 14.72100 | 145° | 130km/h | 10906m | 5.1m/s | 0°C | 0% | 0hPa | 0V | 00:00:00 | 00:00:00 | 00:00:00 | |
| 9A1FER-3 | 2026-09-03 00:04:20 | 45.87584 | 14.72022 | 150° | 133km/h | 10891m | 4.3m/s | 0°C | 0% | 0hPa | 0V | 00:00:00 | 00:00:00 | 00:00:00 | |
| 9A1FER-3 | 2026-09-03 00:04:06 | 45.88016 | 14.71645 | 150° | 131km/h | 10817m | 4.8m/s | 0°C | 0% | 0hPa | 0V | 00:00:00 | 00:00:00 | 00:00:00 | |
| 9A1FER-3 | 2026-09-03 00:03:50 | 45.88447 | 14.71277 | 151° | 131km/h | 10743m | 3.9m/s | 0°C | 0% | 0hPa | 0V | 00:00:00 | 00:00:00 | 00:00:00 | |
| 9A1FER-3 | 2026-09-03 00:03:36 | 45.88871 | 14.70906 | 147° | 131km/h | 10669m | 3.9m/s | 0°C | 0% | 0hPa | 0V | 00:00:00 | 00:00:00 | 00:00:00 | |
| 9A1FER-3 | 2026-09-03 00:03:20 | 45.89295 | 14.70529 | 150° | 131km/h | 10589m | 4.4m/s | 0°C | 0% | 0hPa | 0V | 00:00:00 | 00:00:00 | 00:00:00 | |
| 9A1FER-3 | 2026-09-03 00:03:05 | 45.89715 | 14.70151 | 149° | 130km/h | 10514m | 5.7m/s | 0°C | 0% | 0hPa | 0V | 00:00:00 | 00:00:00 | 00:00:00 | |
| 9A1FER-3 | 2026-09-03 00:02:44 | 45.90940 | 14.68979 | 143° | 130km/h | 10287m | 7.6m/s | 0°C | 0% | 0hPa | 0V | 00:00:00 | 00:00:00 | 00:00:00 | |
| 9A1FER-3 | 2026-09-03 00:02:26 | 45.91340 | 14.68574 | 143° | 131km/h | 10209m | 5.7m/s | 0°C | 0% | 0hPa | 0V | 00:00:00 | 00:00:00 | 00:00:00 | |
| 9A1FER-3 | 2026-09-03 00:02:02 | 45.91762 | 14.68126 | 143° | 135km/h | 10131m | 4.5m/s | 0°C | 0% | 0hPa | 0V | 00:00:00 | 00:00:00 | 00:00:00 | |
| 9A1FER-3 | 2026-09-03 00:01:47 | 45.92184 | 14.67700 | 147° | 131km/h | 10067m | 6.4m/s | 0°C | 0% | 0hPa | 0V | 00:00:00 | 00:00:00 | 00:00:00 | |
| 9A1FER-3 | 2026-09-03 00:01:29 | 45.92607 | 14.67307 | 151° | 137km/h | 10007m | 4.0m/s | 0°C | 0% | 0hPa | 0V | 00:00:00 | 00:00:00 | 00:00:00 | |
| OE3JTB-15 | 2026-09-03 00:01:18 | 45.92899 | 14.67052 | 151° | 133km/h | 9965m | 4.0m/s | 0°C | 0% | 0hPa | 0V | 00:00:00 | 00:00:00 | 00:00:00 | |
| 9A1FER-3 | 2026-09-03 00:00:49 | 45.93501 | 14.66526 | 150° | 130km/h | 9860m | 5.3m/s | 0°C | 0% | 0hPa | 0V | 00:00:00 | 00:00:00 | 00:00:00 | |
| 9A1FER-3 | 2026-09-03 00:00:39 | 45.93922 | 14.66168 | 150° | 126km/h | 9790m | 3.4m/s | 0°C | 0% | 0hPa | 0V | 00:00:00 | 00:00:00 | 00:00:00 | |
| OE3JTB-15 | 2026-09-03 00:00:29 | 45.94171 | 14.65955 | 150° | 120km/h | 9752m | 3.8m/s | 0°C | 0% | 0hPa | 0V | 00:00:00 | 00:00:00 | 00:00:00 | |
| 9A1FER-10 | 2026-09-03 00:00:27 | 45.94199 | 14.65932 | 150° | 124km/h | 9747m | 5.5m/s | 0°C | 0% | 0hPa | 0V | 00:00:00 | 00:00:00 | 00:00:00 | |
| 9A1FER-3 | 2026-09-03 00:00:20 | 45.94330 | 14.65814 | 147° | 122km/h | 9728m | 4.7m/s | 0°C | 0% | 0hPa | 0V | 00:00:00 | 00:00:00 | 00:00:00 | |
| 9A1FER-10 | 2026-09-03 00:00:09 | 45.94594 | 14.65574 | 146° | 119km/h | 9681m | 2.6m/s | 0°C | 0% | 0hPa | 0V | 00:00:00 | 00:00:00 | 00:00:00 | |
| OE3JTB-15 | 2026-09-02 23:59:53 | 45.94995 | 14.65185 | 149° | 117km/h | 9618m | 4.5m/s | 0°C | 0% | 0hPa | 0V | 00:00:00 | 00:00:00 | 00:00:00 | |
| 9A1FER-3 | 2026-09-02 23:59:47 | 45.95119 | 14.65069 | 142° | 115km/h | 9595m | 4.9m/s | 0°C | 0% | 0hPa | 0V | 00:00:00 | 00:00:00 | 00:00:00 | |
| 9A1FER-10 | 2026-09-02 23:59:46 | 45.95142 | 14.65043 | 141° | 115km/h | 9591m | 3.5m/s | 0°C | 0% | 0hPa | 0V | 00:00:00 | 00:00:00 | 00:00:00 | |
| 9A1FER-3 | 2026-09-02 23:59:32 | 45.95475 | 14.64706 | 147° | 115km/h | 9523m | 3.5m/s | 0°C | 0% | 0hPa | 0V | 00:00:00 | 00:00:00 | 00:00:00 | |
| 9A1FER-10 | 2026-09-02 23:59:31 | 45.95499 | 14.64683 | 146° | 115km/h | 9518m | 6.3m/s | 0°C | 0% | 0hPa | 0V | 00:00:00 | 00:00:00 | 00:00:00 | |
| 9A1FER-3 | 2026-09-02 23:59:18 | 45.95825 | 14.64336 | 145° | 108km/h | 9450m | 4.7m/s | 0°C | 0% | 0hPa | 0V | 00:00:00 | 00:00:00 | 00:00:00 | |
| 9A1FER-10 | 2026-09-02 23:59:16 | 45.95848 | 14.64312 | 144° | 106km/h | 9445m | 3.7m/s | 0°C | 0% | 0hPa | 0V | 00:00:00 | 00:00:00 | 00:00:00 | |
| 9A1FER-3 | 2026-09-02 23:59:02 | 45.96155 | 14.63998 | 147° | 108km/h | 9374m | 8.1m/s | 0°C | 0% | 0hPa | 0V | 00:00:00 | 00:00:00 | 00:00:00 | |
| 9A1FER-3 | 2026-09-02 23:58:47 | 45.96480 | 14.63653 | 142° | 104km/h | 9302m | 1.8m/s | 0°C | 0% | 0hPa | 0V | 00:00:00 | 00:00:00 | 00:00:00 | |
| 9A1FER-10 | 2026-09-02 23:58:41 | 45.96604 | 14.63522 | 145° | 104km/h | 9278m | 3.6m/s | 0°C | 0% | 0hPa | 0V | 00:00:00 | 00:00:00 | 00:00:00 | |
| 9A1FER-3 | 2026-09-02 23:58:32 | 45.96798 | 14.63325 | 142° | 102km/h | 9238m | 3.0m/s | 0°C | 0% | 0hPa | 0V | 00:00:00 | 00:00:00 | 00:00:00 | |
| 9A1FER-3 | 2026-09-02 23:58:17 | 45.97117 | 14.63017 | 149° | 102km/h | 9173m | 5.5m/s | 0°C | 0% | 0hPa | 0V | 00:00:00 | 00:00:00 | 00:00:00 | |
| 9A1FER-10 | 2026-09-02 23:58:10 | 45.97265 | 14.62870 | 147° | 100km/h | 9140m | 4.9m/s | 0°C | 0% | 0hPa | 0V | 00:00:00 | 00:00:00 | 00:00:00 | |
| 9A1FER-3 | 2026-09-02 23:58:02 | 45.97436 | 14.62705 | 151° | 97km/h | 9100m | 6.4m/s | 0°C | 0% | 0hPa | 0V | 00:00:00 | 00:00:00 | 00:00:00 |